Observation data for Happy on 08/14/2020      Previous  Date  Next       Current Mesonet Observations  Soil Data  Daily Summary Page  Observations in Plain Language
KHA2 140500Z 04006KT 28/17 A3003 RMK A01 T02800168  RH  051%=      5-min Rain = 0
KHA2 140501Z 04007KT 28/17 A3003 RMK A01 T02800168  RH  051%=      5-min Rain = 0
KHA2 140502Z 04007KT 28/17 A3003 RMK A01 T02800168  RH  051%=      5-min Rain = 0
KHA2 140503Z 04006KT 28/17 A3003 RMK A01 T02800169  RH  051%=      5-min Rain = 0
KHA2 140504Z 04006KT 28/17 A3003 RMK A01 T02800169  RH  051%=      5-min Rain = 0
KHA2 140505Z 04007KT 28/17 A3003 RMK A01 T02800169  RH  051%=      5-min Rain = 0
KHA2 140506Z 04006KT 28/17 A3003 RMK A01 T02800169  RH  051%=      5-min Rain = 0
KHA2 140507Z 04006KT 28/17 A3003 RMK A01 T02800169  RH  051%=      5-min Rain = 0
KHA2 140508Z 04006KT 28/17 A3003 RMK A01 T02800169  RH  051%=      5-min Rain = 0
KHA2 140509Z 03006KT 28/17 A3003 RMK A01 T02790169  RH  051%=      5-min Rain = 0
KHA2 140510Z 03006KT 28/17 A3003 RMK A01 T02790169  RH  051%=      5-min Rain = 0
KHA2 140511Z 03006KT 28/17 A3003 RMK A01 T02790168  RH  051%=      5-min Rain = 0
KHA2 140512Z 04006KT 28/17 A3003 RMK A01 T02790168  RH  051%=      5-min Rain = 0
KHA2 140513Z 04006KT 28/17 A3003 RMK A01 T02790169  RH  051%=      5-min Rain = 0
KHA2 140514Z 04006KT 28/17 A3003 RMK A01 T02790169  RH  051%=      5-min Rain = 0
KHA2 140515Z 03006KT 28/17 A3003 RMK A01 T02790169  RH  051%=      5-min Rain = 0
KHA2 140516Z 03007KT 28/17 A3003 RMK A01 T02790170  RH  052%=      5-min Rain = 0
KHA2 140517Z 03007KT 28/17 A3003 RMK A01 T02780170  RH  052%=      5-min Rain = 0
KHA2 140518Z 03007KT 28/17 A3003 RMK A01 T02780170  RH  052%=      5-min Rain = 0
KHA2 140519Z 03007KT 28/17 A3003 RMK A01 T02780170  RH  052%=      5-min Rain = 0
KHA2 140520Z 03007KT 28/17 A3003 RMK A01 T02770170  RH  052%=      5-min Rain = 0
KHA2 140521Z 03007KT 28/17 A3003 RMK A01 T02770171  RH  052%=      5-min Rain = 0
KHA2 140522Z 03007KT 28/17 A3003 RMK A01 T02760170  RH  052%=      5-min Rain = 0
KHA2 140523Z 03007KT 28/17 A3003 RMK A01 T02760170  RH  053%=      5-min Rain = 0
KHA2 140524Z 03007KT 28/17 A3003 RMK A01 T02750171  RH  053%=      5-min Rain = 0
KHA2 140525Z 03007KT 28/17 A3003 RMK A01 T02750171  RH  053%=      5-min Rain = 0
KHA2 140526Z 03007KT 27/17 A3002 RMK A01 T02740171  RH  053%=      5-min Rain = 0
KHA2 140527Z 03007KT 27/17 A3002 RMK A01 T02740171  RH  053%=      5-min Rain = 0
KHA2 140528Z 04007KT 27/17 A3002 RMK A01 T02740171  RH  053%=      5-min Rain = 0
KHA2 140529Z 04007KT 27/17 A3002 RMK A01 T02740171  RH  053%=      5-min Rain = 0
KHA2 140530Z 03007KT 27/17 A3002 RMK A01 T02740171  RH  053%=      5-min Rain = 0
KHA2 140531Z 04006KT 27/17 A3002 RMK A01 T02730171  RH  054%=      5-min Rain = 0
KHA2 140532Z 04006KT 27/17 A3002 RMK A01 T02730171  RH  054%=      5-min Rain = 0
KHA2 140533Z 04006KT 27/17 A3002 RMK A01 T02720171  RH  054%=      5-min Rain = 0
KHA2 140534Z 04005KT 27/17 A3002 RMK A01 T02710171  RH  054%=      5-min Rain = 0
KHA2 140535Z 04005KT 27/17 A3002 RMK A01 T02710170  RH  054%=      5-min Rain = 0
KHA2 140536Z 04005KT 27/17 A3002 RMK A01 T02710171  RH  054%=      5-min Rain = 0
KHA2 140537Z 04005KT 27/17 A3002 RMK A01 T02700171  RH  055%=      5-min Rain = 0
KHA2 140538Z 05005KT 27/17 A3003 RMK A01 T02690170  RH  055%=      5-min Rain = 0
KHA2 140539Z 04005KT 27/17 A3003 RMK A01 T02680170  RH  055%=      5-min Rain = 0
KHA2 140540Z 04005KT 27/17 A3003 RMK A01 T02660170  RH  055%=      5-min Rain = 0
KHA2 140541Z 04005KT 27/17 A3003 RMK A01 T02660170  RH  056%=      5-min Rain = 0
KHA2 140542Z 04005KT 27/17 A3003 RMK A01 T02650170  RH  056%=      5-min Rain = 0
KHA2 140543Z 04005KT 26/17 A3003 RMK A01 T02640172  RH  057%=      5-min Rain = 0
KHA2 140544Z 03005KT 26/17 A3003 RMK A01 T02630171  RH  057%=      5-min Rain = 0
KHA2 140545Z 02004KT 26/17 A3003 RMK A01 T02620171  RH  057%=      5-min Rain = 0
KHA2 140546Z 02004KT 26/17 A3003 RMK A01 T02610168  RH  057%=      5-min Rain = 0
KHA2 140547Z 02004KT 26/17 A3003 RMK A01 T02610167  RH  056%=      5-min Rain = 0
KHA2 140548Z 01004KT 26/17 A3003 RMK A01 T02610167  RH  056%=      5-min Rain = 0
KHA2 140549Z 01004KT 26/17 A3003 RMK A01 T02610168  RH  056%=      5-min Rain = 0
KHA2 140550Z 01005KT 26/17 A3003 RMK A01 T02610167  RH  056%=      5-min Rain = 0
KHA2 140551Z 00005KT 26/17 A3003 RMK A01 T02620168  RH  056%=      5-min Rain = 0
KHA2 140552Z 01005KT 26/17 A3003 RMK A01 T02620167  RH  056%=      5-min Rain = 0
KHA2 140553Z 36004KT 26/17 A3003 RMK A01 T02620167  RH  056%=      5-min Rain = 0
KHA2 140554Z 36003KT 26/17 A3003 RMK A01 T02630167  RH  055%=      5-min Rain = 0
KHA2 140555Z 00002KT 26/17 A3003 RMK A01 T02630167  RH  055%=      5-min Rain = 0
KHA2 140556Z 01002KT 26/17 A3003 RMK A01 T02630167  RH  055%=      5-min Rain = 0
KHA2 140557Z 35001KT 26/17 A3003 RMK A01 T02630167  RH  055%=      5-min Rain = 0
KHA2 140558Z 00001KT 26/17 A3003 RMK A01 T02630167  RH  055%=      5-min Rain = 0
KHA2 140559Z 35001KT 26/17 A3003 RMK A01 T02630167  RH  055%=      5-min Rain = 0
KHA2 140600Z 01001KT 26/17 A3004 RMK A01 T02640168  RH  055%=      5-min Rain = 0
KHA2 140601Z 01002KT 26/17 A3004 RMK A01 T02630167  RH  056%=      5-min Rain = 0
KHA2 140602Z 03002KT 26/17 A3004 RMK A01 T02640168  RH  056%=      5-min Rain = 0
KHA2 140603Z 03003KT 26/17 A3004 RMK A01 T02640168  RH  056%=      5-min Rain = 0
KHA2 140604Z 04003KT 26/17 A3004 RMK A01 T02640168  RH  056%=      5-min Rain = 0
KHA2 140605Z 04003KT 26/17 A3004 RMK A01 T02640168  RH  056%=      5-min Rain = 0
KHA2 140606Z 04003KT 26/17 A3004 RMK A01 T02640170  RH  056%=      5-min Rain = 0
KHA2 140607Z 04003KT 26/17 A3004 RMK A01 T02640173  RH  057%=      5-min Rain = 0
KHA2 140608Z 04003KT 26/17 A3004 RMK A01 T02640173  RH  057%=      5-min Rain = 0
KHA2 140609Z 04003KT 26/17 A3003 RMK A01 T02640173  RH  057%=      5-min Rain = 0
KHA2 140610Z 04004KT 26/17 A3003 RMK A01 T02640173  RH  057%=      5-min Rain = 0
KHA2 140611Z 04004KT 26/17 A3003 RMK A01 T02630173  RH  057%=      5-min Rain = 0
KHA2 140612Z 04004KT 26/17 A3003 RMK A01 T02630171  RH  057%=      5-min Rain = 0
KHA2 140613Z 05004KT 26/17 A3003 RMK A01 T02620171  RH  057%=      5-min Rain = 0
KHA2 140614Z 05004KT 26/17 A3003 RMK A01 T02620172  RH  058%=      5-min Rain = 0
KHA2 140615Z 05005KT 26/17 A3003 RMK A01 T02610172  RH  058%=      5-min Rain = 0
KHA2 140616Z 05005KT 26/17 A3003 RMK A01 T02610172  RH  058%=      5-min Rain = 0
KHA2 140617Z 04005KT 26/17 A3003 RMK A01 T02610172  RH  058%=      5-min Rain = 0
KHA2 140618Z 04005KT 26/17 A3003 RMK A01 T02600172  RH  058%=      5-min Rain = 0
KHA2 140619Z 04005KT 26/17 A3003 RMK A01 T02590171  RH  058%=      5-min Rain = 0
KHA2 140620Z 03004KT 26/17 A3003 RMK A01 T02570168  RH  058%=      5-min Rain = 0
KHA2 140621Z 03004KT 26/16 A3004 RMK A01 T02560162  RH  056%=      5-min Rain = 0
KHA2 140622Z 03004KT 26/16 A3004 RMK A01 T02550162  RH  057%=      5-min Rain = 0
KHA2 140623Z 03004KT 25/17 A3004 RMK A01 T02540165  RH  058%=      5-min Rain = 0
KHA2 140624Z 03004KT 25/17 A3004 RMK A01 T02540167  RH  059%=      5-min Rain = 0
KHA2 140625Z 03004KT 25/17 A3004 RMK A01 T02530168  RH  059%=      5-min Rain = 0
KHA2 140626Z 03004KT 25/17 A3004 RMK A01 T02530167  RH  059%=      5-min Rain = 0
KHA2 140627Z 03004KT 25/17 A3004 RMK A01 T02530165  RH  058%=      5-min Rain = 0
KHA2 140628Z 04004KT 25/17 A3004 RMK A01 T02530166  RH  059%=      5-min Rain = 0
KHA2 140629Z 04004KT 25/17 A3004 RMK A01 T02530168  RH  059%=      5-min Rain = 0
KHA2 140630Z 03004KT 25/17 A3004 RMK A01 T02530169  RH  059%=      5-min Rain = 0
KHA2 140631Z 03005KT 25/17 A3004 RMK A01 T02540168  RH  059%=      5-min Rain = 0
KHA2 140632Z 03005KT 25/17 A3004 RMK A01 T02540166  RH  058%=      5-min Rain = 0
KHA2 140633Z 03005KT 25/17 A3004 RMK A01 T02540166  RH  058%=      5-min Rain = 0
KHA2 140634Z 04005KT 25/17 A3004 RMK A01 T02530166  RH  058%=      5-min Rain = 0
KHA2 140635Z 04005KT 25/17 A3004 RMK A01 T02520168  RH  060%=      5-min Rain = 0
KHA2 140636Z 03004KT 25/17 A3004 RMK A01 T02510167  RH  060%=      5-min Rain = 0
KHA2 140637Z 04004KT 25/17 A3004 RMK A01 T02500166  RH  060%=      5-min Rain = 0
KHA2 140638Z 04004KT 25/17 A3004 RMK A01 T02490166  RH  060%=      5-min Rain = 0
KHA2 140639Z 04004KT 25/17 A3004 RMK A01 T02490166  RH  060%=      5-min Rain = 0
KHA2 140640Z 05004KT 25/17 A3004 RMK A01 T02480167  RH  060%=      5-min Rain = 0
KHA2 140641Z 05004KT 25/17 A3004 RMK A01 T02480167  RH  060%=      5-min Rain = 0
KHA2 140642Z 06004KT 25/17 A3004 RMK A01 T02490168  RH  061%=      5-min Rain = 0
KHA2 140643Z 05004KT 25/17 A3004 RMK A01 T02480168  RH  061%=      5-min Rain = 0
KHA2 140644Z 05004KT 25/17 A3004 RMK A01 T02490170  RH  061%=      5-min Rain = 0
KHA2 140645Z 05004KT 25/17 A3004 RMK A01 T02480170  RH  062%=      5-min Rain = 0
KHA2 140646Z 05005KT 25/17 A3004 RMK A01 T02470171  RH  063%=      5-min Rain = 0
KHA2 140647Z 05005KT 25/17 A3004 RMK A01 T02460172  RH  063%=      5-min Rain = 0
KHA2 140648Z 06005KT 25/17 A3004 RMK A01 T02450171  RH  064%=      5-min Rain = 0
KHA2 140649Z 06005KT 24/17 A3004 RMK A01 T02440172  RH  064%=      5-min Rain = 0
KHA2 140650Z 06005KT 24/17 A3004 RMK A01 T02430173  RH  065%=      5-min Rain = 0
KHA2 140651Z 06004KT 24/17 A3004 RMK A01 T02420171  RH  065%=      5-min Rain = 0
KHA2 140652Z 06004KT 24/17 A3004 RMK A01 T02410170  RH  064%=      5-min Rain = 0
KHA2 140653Z 06004KT 24/17 A3004 RMK A01 T02410169  RH  064%=      5-min Rain = 0
KHA2 140654Z 07004KT 24/17 A3004 RMK A01 T02410168  RH  064%=      5-min Rain = 0
KHA2 140655Z 07004KT 24/17 A3004 RMK A01 T02410168  RH  064%=      5-min Rain = 0
KHA2 140656Z 06005KT 24/17 A3004 RMK A01 T02410169  RH  064%=      5-min Rain = 0
KHA2 140657Z 06005KT 24/17 A3003 RMK A01 T02410169  RH  064%=      5-min Rain = 0
KHA2 140658Z 06005KT 24/17 A3003 RMK A01 T02410170  RH  065%=      5-min Rain = 0
KHA2 140659Z 07005KT 24/17 A3003 RMK A01 T02400170  RH  065%=      5-min Rain = 0
KHA2 140700Z 08005KT 24/17 A3003 RMK A01 T02390167  RH  064%=      5-min Rain = 0
KHA2 140701Z 08005KT 24/17 A3003 RMK A01 T02380168  RH  065%=      5-min Rain = 0
KHA2 140702Z 08005KT 24/17 A3003 RMK A01 T02360169  RH  066%=      5-min Rain = 0
KHA2 140703Z 08005KT 24/17 A3003 RMK A01 T02350169  RH  066%=      5-min Rain = 0
KHA2 140704Z 08005KT 23/17 A3003 RMK A01 T02340168  RH  066%=      5-min Rain = 0
KHA2 140705Z 08005KT 23/17 A3003 RMK A01 T02340168  RH  066%=      5-min Rain = 0
KHA2 140706Z 08006KT 23/17 A3003 RMK A01 T02340169  RH  067%=      5-min Rain = 0
KHA2 140707Z 08006KT 23/17 A3003 RMK A01 T02340169  RH  067%=      5-min Rain = 0
KHA2 140708Z 08006KT 23/17 A3003 RMK A01 T02330169  RH  067%=      5-min Rain = 0
KHA2 140709Z 09006KT 23/17 A3003 RMK A01 T02330168  RH  067%=      5-min Rain = 0
KHA2 140710Z 09006KT 23/17 A3003 RMK A01 T02330168  RH  067%=      5-min Rain = 0
KHA2 140711Z 09006KT 23/17 A3004 RMK A01 T02330168  RH  067%=      5-min Rain = 0
KHA2 140712Z 09006KT 23/17 A3004 RMK A01 T02320168  RH  067%=      5-min Rain = 0
KHA2 140713Z 09006KT 23/17 A3004 RMK A01 T02320168  RH  067%=      5-min Rain = 0
KHA2 140714Z 09006KT 23/17 A3004 RMK A01 T02320167  RH  067%=      5-min Rain = 0
KHA2 140715Z 09006KT 23/17 A3004 RMK A01 T02320168  RH  067%=      5-min Rain = 0
KHA2 140716Z 09005KT 23/17 A3004 RMK A01 T02310167  RH  067%=      5-min Rain = 0
KHA2 140717Z 08005KT 23/17 A3003 RMK A01 T02310167  RH  067%=      5-min Rain = 0
KHA2 140718Z 07005KT 23/17 A3003 RMK A01 T02310167  RH  067%=      5-min Rain = 0
KHA2 140719Z 07005KT 23/17 A3003 RMK A01 T02310166  RH  067%=      5-min Rain = 0
KHA2 140720Z 06005KT 23/16 A3003 RMK A01 T02300162  RH  066%=      5-min Rain = 0
KHA2 140721Z 06005KT 23/16 A3003 RMK A01 T02290160  RH  065%=      5-min Rain = 0
KHA2 140722Z 06005KT 23/16 A3003 RMK A01 T02270159  RH  065%=      5-min Rain = 0
KHA2 140723Z 06004KT 23/16 A3003 RMK A01 T02260158  RH  065%=      5-min Rain = 0
KHA2 140724Z 06004KT 22/16 A3003 RMK A01 T02240160  RH  067%=      5-min Rain = 0
KHA2 140725Z 07005KT 22/16 A3003 RMK A01 T02230162  RH  068%=      5-min Rain = 0
KHA2 140726Z 09005KT 22/16 A3003 RMK A01 T02240162  RH  068%=      5-min Rain = 0
KHA2 140727Z 09006KT 22/16 A3003 RMK A01 T02230160  RH  067%=      5-min Rain = 0
KHA2 140728Z 09007KT 22/17 A3003 RMK A01 T02240166  RH  070%=      5-min Rain = 0
KHA2 140729Z 09007KT 22/16 A3003 RMK A01 T02230162  RH  068%=      5-min Rain = 0
KHA2 140730Z 08008KT 22/16 A3003 RMK A01 T02230162  RH  068%=      5-min Rain = 0
KHA2 140731Z 07008KT 22/16 A3003 RMK A01 T02230162  RH  069%=      5-min Rain = 0
KHA2 140732Z 07008KT 22/16 A3002 RMK A01 T02230163  RH  069%=      5-min Rain = 0
KHA2 140733Z 07008KT 22/16 A3002 RMK A01 T02230163  RH  069%=      5-min Rain = 0
KHA2 140734Z 08007KT 22/16 A3002 RMK A01 T02230163  RH  069%=      5-min Rain = 0
KHA2 140735Z 08007KT 22/16 A3002 RMK A01 T02230162  RH  068%=      5-min Rain = 0
KHA2 140736Z 09006KT 22/16 A3003 RMK A01 T02230161  RH  068%=      5-min Rain = 0
KHA2 140737Z 09006KT 22/16 A3003 RMK A01 T02220163  RH  069%=      5-min Rain = 0
KHA2 140738Z 09006KT 22/16 A3003 RMK A01 T02220163  RH  069%=      5-min Rain = 0
KHA2 140739Z 08005KT 22/16 A3003 RMK A01 T02230163  RH  069%=      5-min Rain = 0
KHA2 140740Z 08005KT 22/16 A3003 RMK A01 T02230163  RH  068%=      5-min Rain = 0
KHA2 140741Z 08005KT 22/16 A3003 RMK A01 T02240163  RH  068%=      5-min Rain = 0
KHA2 140742Z 09005KT 22/16 A3003 RMK A01 T02240163  RH  068%=      5-min Rain = 0
KHA2 140743Z 09006KT 22/16 A3003 RMK A01 T02240163  RH  068%=      5-min Rain = 0
KHA2 140744Z 08006KT 23/16 A3003 RMK A01 T02250163  RH  068%=      5-min Rain = 0
KHA2 140745Z 08006KT 23/16 A3002 RMK A01 T02250163  RH  068%=      5-min Rain = 0
KHA2 140746Z 07006KT 23/16 A3002 RMK A01 T02250164  RH  068%=      5-min Rain = 0
KHA2 140747Z 07006KT 23/17 A3002 RMK A01 T02260165  RH  069%=      5-min Rain = 0
KHA2 140748Z 07006KT 23/17 A3002 RMK A01 T02260166  RH  069%=      5-min Rain = 0
KHA2 140749Z 06005KT 23/17 A3002 RMK A01 T02250165  RH  069%=      5-min Rain = 0
KHA2 140750Z 07006KT 22/16 A3002 RMK A01 T02240162  RH  068%=      5-min Rain = 0
KHA2 140751Z 07006KT 22/16 A3002 RMK A01 T02240162  RH  068%=      5-min Rain = 0
KHA2 140752Z 07006KT 22/16 A3002 RMK A01 T02230162  RH  069%=      5-min Rain = 0
KHA2 140753Z 07006KT 22/16 A3002 RMK A01 T02220163  RH  069%=      5-min Rain = 0
KHA2 140754Z 07006KT 22/16 A3002 RMK A01 T02230163  RH  069%=      5-min Rain = 0
KHA2 140755Z 07005KT 22/16 A3002 RMK A01 T02220163  RH  069%=      5-min Rain = 0
KHA2 140756Z 07005KT 22/16 A3002 RMK A01 T02220163  RH  069%=      5-min Rain = 0
KHA2 140757Z 07005KT 22/16 A3002 RMK A01 T02230162  RH  069%=      5-min Rain = 0
KHA2 140758Z 07005KT 22/16 A3002 RMK A01 T02220162  RH  068%=      5-min Rain = 0
KHA2 140759Z 07005KT 22/16 A3002 RMK A01 T02220162  RH  068%=      5-min Rain = 0
KHA2 140800Z 07005KT 22/16 A3002 RMK A01 T02220161  RH  068%=      5-min Rain = 0
KHA2 140801Z 07005KT 22/16 A3002 RMK A01 T02230162  RH  068%=      5-min Rain = 0
KHA2 140802Z 06005KT 22/16 A3002 RMK A01 T02220162  RH  068%=      5-min Rain = 0
KHA2 140803Z 06005KT 22/16 A3002 RMK A01 T02220162  RH  068%=      5-min Rain = 0
KHA2 140804Z 06005KT 22/16 A3002 RMK A01 T02220161  RH  068%=      5-min Rain = 0
KHA2 140805Z 06005KT 22/16 A3002 RMK A01 T02220160  RH  068%=      5-min Rain = 0
KHA2 140806Z 06004KT 22/16 A3002 RMK A01 T02200157  RH  067%=      5-min Rain = 0
KHA2 140807Z 05004KT 22/16 A3002 RMK A01 T02200156  RH  067%=      5-min Rain = 0
KHA2 140808Z 05004KT 22/16 A3002 RMK A01 T02210156  RH  067%=      5-min Rain = 0
KHA2 140809Z 05004KT 22/16 A3002 RMK A01 T02210157  RH  067%=      5-min Rain = 0
KHA2 140810Z 04004KT 22/16 A3002 RMK A01 T02220159  RH  067%=      5-min Rain = 0
KHA2 140811Z 04003KT 22/16 A3002 RMK A01 T02230160  RH  067%=      5-min Rain = 0
KHA2 140812Z 03003KT 22/16 A3002 RMK A01 T02240160  RH  067%=      5-min Rain = 0
KHA2 140813Z 03003KT 22/16 A3002 RMK A01 T02240160  RH  067%=      5-min Rain = 0
KHA2 140814Z 03003KT 23/16 A3002 RMK A01 T02250160  RH  067%=      5-min Rain = 0
KHA2 140815Z 04003KT 23/16 A3002 RMK A01 T02250161  RH  067%=      5-min Rain = 0
KHA2 140816Z 04004KT 23/16 A3002 RMK A01 T02260161  RH  067%=      5-min Rain = 0
KHA2 140817Z 04004KT 23/16 A3002 RMK A01 T02270162  RH  067%=      5-min Rain = 0
KHA2 140818Z 04004KT 23/16 A3002 RMK A01 T02270162  RH  067%=      5-min Rain = 0
KHA2 140819Z 04004KT 23/16 A3002 RMK A01 T02270162  RH  067%=      5-min Rain = 0
KHA2 140820Z 04004KT 23/16 A3002 RMK A01 T02270163  RH  067%=      5-min Rain = 0
KHA2 140821Z 04004KT 23/17 A3002 RMK A01 T02270165  RH  068%=      5-min Rain = 0
KHA2 140822Z 04003KT 23/17 A3003 RMK A01 T02270165  RH  068%=      5-min Rain = 0
KHA2 140823Z 04003KT 23/17 A3003 RMK A01 T02270165  RH  068%=      5-min Rain = 0
KHA2 140824Z 04003KT 23/16 A3003 RMK A01 T02270164  RH  067%=      5-min Rain = 0
KHA2 140825Z 04003KT 23/16 A3003 RMK A01 T02270163  RH  067%=      5-min Rain = 0
KHA2 140826Z 04003KT 23/16 A3002 RMK A01 T02270163  RH  067%=      5-min Rain = 0
KHA2 140827Z 03003KT 23/16 A3002 RMK A01 T02270162  RH  067%=      5-min Rain = 0
KHA2 140828Z 04003KT 23/16 A3002 RMK A01 T02260162  RH  067%=      5-min Rain = 0
KHA2 140829Z 04002KT 23/16 A3002 RMK A01 T02270163  RH  067%=      5-min Rain = 0
KHA2 140830Z 04002KT 23/16 A3002 RMK A01 T02270164  RH  068%=      5-min Rain = 0
KHA2 140831Z 04002KT 23/17 A3002 RMK A01 T02270165  RH  068%=      5-min Rain = 0
KHA2 140832Z 05002KT 23/17 A3002 RMK A01 T02270166  RH  068%=      5-min Rain = 0
KHA2 140833Z 05002KT 23/17 A3002 RMK A01 T02280167  RH  068%=      5-min Rain = 0
KHA2 140834Z 05002KT 23/17 A3002 RMK A01 T02290168  RH  068%=      5-min Rain = 0
KHA2 140835Z 05002KT 23/17 A3002 RMK A01 T02300168  RH  068%=      5-min Rain = 0
KHA2 140836Z 05002KT 23/17 A3002 RMK A01 T02300166  RH  067%=      5-min Rain = 0
KHA2 140837Z 05001KT 23/16 A3002 RMK A01 T02300164  RH  066%=      5-min Rain = 0
KHA2 140838Z 04001KT 23/16 A3002 RMK A01 T02290162  RH  066%=      5-min Rain = 0
KHA2 140839Z 04000KT 23/16 A3002 RMK A01 T02280160  RH  066%=      5-min Rain = 0
KHA2 140840Z 00000KT 23/16 A3002 RMK A01 T02260161  RH  066%=      5-min Rain = 0
KHA2 140841Z 00000KT 23/16 A3002 RMK A01 T02250164  RH  068%=      5-min Rain = 0
KHA2 140842Z 04000KT 23/17 A3002 RMK A01 T02250166  RH  069%=      5-min Rain = 0
KHA2 140843Z 04001KT 23/17 A3002 RMK A01 T02250167  RH  070%=      5-min Rain = 0
KHA2 140844Z 02001KT 23/17 A3002 RMK A01 T02250167  RH  070%=      5-min Rain = 0
KHA2 140845Z 03001KT 23/17 A3002 RMK A01 T02250166  RH  069%=      5-min Rain = 0
KHA2 140846Z 02001KT 23/17 A3002 RMK A01 T02250167  RH  069%=      5-min Rain = 0
KHA2 140847Z 02001KT 23/17 A3002 RMK A01 T02250167  RH  069%=      5-min Rain = 0
KHA2 140848Z 02001KT 23/17 A3002 RMK A01 T02250168  RH  070%=      5-min Rain = 0
KHA2 140849Z 02001KT 23/17 A3002 RMK A01 T02260169  RH  070%=      5-min Rain = 0
KHA2 140850Z 03001KT 23/17 A3002 RMK A01 T02260168  RH  070%=      5-min Rain = 0
KHA2 140851Z 03000KT 23/17 A3002 RMK A01 T02260169  RH  070%=      5-min Rain = 0
KHA2 140852Z 00000KT 23/17 A3002 RMK A01 T02260168  RH  070%=      5-min Rain = 0
KHA2 140853Z 00000KT 23/17 A3002 RMK A01 T02260168  RH  070%=      5-min Rain = 0
KHA2 140854Z 00000KT 23/17 A3002 RMK A01 T02250169  RH  070%=      5-min Rain = 0
KHA2 140855Z 05001KT 23/17 A3002 RMK A01 T02250168  RH  070%=      5-min Rain = 0
KHA2 140856Z 04001KT 23/17 A3002 RMK A01 T02250168  RH  070%=      5-min Rain = 0
KHA2 140857Z 04001KT 23/17 A3002 RMK A01 T02250167  RH  070%=      5-min Rain = 0
KHA2 140858Z 04001KT 23/17 A3002 RMK A01 T02250167  RH  070%=      5-min Rain = 0
KHA2 140859Z 04001KT 23/17 A3002 RMK A01 T02250169  RH  070%=      5-min Rain = 0
KHA2 140900Z 03001KT 23/17 A3002 RMK A01 T02250168  RH  070%=      5-min Rain = 0
KHA2 140901Z 03001KT 23/17 A3002 RMK A01 T02250169  RH  071%=      5-min Rain = 0
KHA2 140902Z 05001KT 23/17 A3002 RMK A01 T02250170  RH  071%=      5-min Rain = 0
KHA2 140903Z 05001KT 23/17 A3002 RMK A01 T02250170  RH  071%=      5-min Rain = 0
KHA2 140904Z 06001KT 23/17 A3002 RMK A01 T02250170  RH  071%=      5-min Rain = 0
KHA2 140905Z 10001KT 23/17 A3002 RMK A01 T02260171  RH  071%=      5-min Rain = 0
KHA2 140906Z 11001KT 23/17 A3002 RMK A01 T02260171  RH  071%=      5-min Rain = 0
KHA2 140907Z 08001KT 23/17 A3002 RMK A01 T02260171  RH  071%=      5-min Rain = 0
KHA2 140908Z 07001KT 23/17 A3002 RMK A01 T02260171  RH  071%=      5-min Rain = 0
KHA2 140909Z 07001KT 23/17 A3002 RMK A01 T02260171  RH  071%=      5-min Rain = 0
KHA2 140910Z 07001KT 23/17 A3002 RMK A01 T02260170  RH  071%=      5-min Rain = 0
KHA2 140911Z 07001KT 23/17 A3002 RMK A01 T02260169  RH  070%=      5-min Rain = 0
KHA2 140912Z 07000KT 23/17 A3002 RMK A01 T02250167  RH  070%=      5-min Rain = 0
KHA2 140913Z 00000KT 22/17 A3002 RMK A01 T02240168  RH  071%=      5-min Rain = 0
KHA2 140914Z 00000KT 22/17 A3002 RMK A01 T02230168  RH  071%=      5-min Rain = 0
KHA2 140915Z 00000KT 22/17 A3002 RMK A01 T02220168  RH  072%=      5-min Rain = 0
KHA2 140916Z 00000KT 22/17 A3002 RMK A01 T02220168  RH  071%=      5-min Rain = 0
KHA2 140917Z 00000KT 22/17 A3002 RMK A01 T02210167  RH  071%=      5-min Rain = 0
KHA2 140918Z 01001KT 22/17 A3002 RMK A01 T02210167  RH  072%=      5-min Rain = 0
KHA2 140919Z 00001KT 22/17 A3002 RMK A01 T02210170  RH  073%=      5-min Rain = 0
KHA2 140920Z 34001KT 22/17 A3002 RMK A01 T02210170  RH  073%=      5-min Rain = 0
KHA2 140921Z 33001KT 22/17 A3002 RMK A01 T02210171  RH  073%=      5-min Rain = 0
KHA2 140922Z 34002KT 22/17 A3002 RMK A01 T02220169  RH  072%=      5-min Rain = 0
KHA2 140923Z 35002KT 22/17 A3001 RMK A01 T02220167  RH  071%=      5-min Rain = 0
KHA2 140924Z 35002KT 22/17 A3002 RMK A01 T02220166  RH  070%=      5-min Rain = 0
KHA2 140925Z 35002KT 22/17 A3002 RMK A01 T02210165  RH  070%=      5-min Rain = 0
KHA2 140926Z 35003KT 22/16 A3001 RMK A01 T02210164  RH  070%=      5-min Rain = 0
KHA2 140927Z 36004KT 22/16 A3001 RMK A01 T02190163  RH  070%=      5-min Rain = 0
KHA2 140928Z 00004KT 22/16 A3001 RMK A01 T02180161  RH  070%=      5-min Rain = 0
KHA2 140929Z 00004KT 22/16 A3001 RMK A01 T02170160  RH  070%=      5-min Rain = 0
KHA2 140930Z 00004KT 22/16 A3001 RMK A01 T02160160  RH  070%=      5-min Rain = 0
KHA2 140931Z 35004KT 22/16 A3001 RMK A01 T02150159  RH  070%=      5-min Rain = 0
KHA2 140932Z 35004KT 21/16 A3001 RMK A01 T02140159  RH  070%=      5-min Rain = 0
KHA2 140933Z 35004KT 21/16 A3001 RMK A01 T02140159  RH  071%=      5-min Rain = 0
KHA2 140934Z 35005KT 21/16 A3001 RMK A01 T02130159  RH  071%=      5-min Rain = 0
KHA2 140935Z 35005KT 21/16 A3001 RMK A01 T02130159  RH  071%=      5-min Rain = 0
KHA2 140936Z 35005KT 21/16 A3001 RMK A01 T02120158  RH  071%=      5-min Rain = 0
KHA2 140937Z 35005KT 21/16 A3001 RMK A01 T02110157  RH  071%=      5-min Rain = 0
KHA2 140938Z 34005KT 21/16 A3001 RMK A01 T02100157  RH  071%=      5-min Rain = 0
KHA2 140939Z 34005KT 21/16 A3001 RMK A01 T02100157  RH  071%=      5-min Rain = 0
KHA2 140940Z 34005KT 21/16 A3001 RMK A01 T02110157  RH  071%=      5-min Rain = 0
KHA2 140941Z 34004KT 21/16 A3001 RMK A01 T02100157  RH  072%=      5-min Rain = 0
KHA2 140942Z 34004KT 21/16 A3001 RMK A01 T02110157  RH  072%=      5-min Rain = 0
KHA2 140943Z 34004KT 21/16 A3001 RMK A01 T02110157  RH  071%=      5-min Rain = 0
KHA2 140944Z 35004KT 21/16 A3001 RMK A01 T02110157  RH  071%=      5-min Rain = 0
KHA2 140945Z 36005KT 21/16 A3001 RMK A01 T02100157  RH  071%=      5-min Rain = 0
KHA2 140946Z 35005KT 21/16 A3001 RMK A01 T02100157  RH  071%=      5-min Rain = 0
KHA2 140947Z 35005KT 21/16 A3001 RMK A01 T02100157  RH  072%=      5-min Rain = 0
KHA2 140948Z 35004KT 21/16 A3001 RMK A01 T02100157  RH  072%=      5-min Rain = 0
KHA2 140949Z 35005KT 21/16 A3001 RMK A01 T02090157  RH  072%=      5-min Rain = 0
KHA2 140950Z 35004KT 21/16 A3001 RMK A01 T02090157  RH  072%=      5-min Rain = 0
KHA2 140951Z 35004KT 21/16 A3001 RMK A01 T02090156  RH  072%=      5-min Rain = 0
KHA2 140952Z 35004KT 21/16 A3001 RMK A01 T02090157  RH  072%=      5-min Rain = 0
KHA2 140953Z 35004KT 21/16 A3001 RMK A01 T02090157  RH  072%=      5-min Rain = 0
KHA2 140954Z 00004KT 21/16 A3001 RMK A01 T02090156  RH  072%=      5-min Rain = 0
KHA2 140955Z 00004KT 21/16 A3001 RMK A01 T02080156  RH  072%=      5-min Rain = 0
KHA2 140956Z 00004KT 21/16 A3001 RMK A01 T02080157  RH  072%=      5-min Rain = 0
KHA2 140957Z 00005KT 21/16 A3001 RMK A01 T02090157  RH  072%=      5-min Rain = 0
KHA2 140958Z 00005KT 21/16 A3001 RMK A01 T02080157  RH  072%=      5-min Rain = 0
KHA2 140959Z 00005KT 21/16 A3001 RMK A01 T02080157  RH  072%=      5-min Rain = 0
KHA2 141000Z 00005KT 21/16 A3001 RMK A01 T02080156  RH  072%=      5-min Rain = 0
KHA2 141001Z 00004KT 21/16 A3001 RMK A01 T02080157  RH  073%=      5-min Rain = 0
KHA2 141002Z 36004KT 21/16 A3001 RMK A01 T02080158  RH  073%=      5-min Rain = 0
KHA2 141003Z 35003KT 21/16 A3001 RMK A01 T02080158  RH  073%=      5-min Rain = 0
KHA2 141004Z 35003KT 21/16 A3001 RMK A01 T02080159  RH  073%=      5-min Rain = 0
KHA2 141005Z 35003KT 21/16 A3001 RMK A01 T02080159  RH  073%=      5-min Rain = 0
KHA2 141006Z 35003KT 21/16 A3001 RMK A01 T02080160  RH  074%=      5-min Rain = 0
KHA2 141007Z 35002KT 21/16 A3001 RMK A01 T02090161  RH  074%=      5-min Rain = 0
KHA2 141008Z 35002KT 21/16 A3001 RMK A01 T02090162  RH  074%=      5-min Rain = 0
KHA2 141009Z 35002KT 21/16 A3001 RMK A01 T02100162  RH  074%=      5-min Rain = 0
KHA2 141010Z 35002KT 21/16 A3001 RMK A01 T02100162  RH  074%=      5-min Rain = 0
KHA2 141011Z 35002KT 21/16 A3001 RMK A01 T02100163  RH  074%=      5-min Rain = 0
KHA2 141012Z 35002KT 21/16 A3001 RMK A01 T02100164  RH  075%=      5-min Rain = 0
KHA2 141013Z 35002KT 21/16 A3001 RMK A01 T02100164  RH  075%=      5-min Rain = 0
KHA2 141014Z 35002KT 21/16 A3001 RMK A01 T02110164  RH  075%=      5-min Rain = 0
KHA2 141015Z 01002KT 21/17 A3001 RMK A01 T02110165  RH  075%=      5-min Rain = 0
KHA2 141016Z 02003KT 21/17 A3001 RMK A01 T02110166  RH  075%=      5-min Rain = 0
KHA2 141017Z 02002KT 21/17 A3001 RMK A01 T02110165  RH  075%=      5-min Rain = 0
KHA2 141018Z 02001KT 21/16 A3001 RMK A01 T02120164  RH  074%=      5-min Rain = 0
KHA2 141019Z 02002KT 21/16 A3001 RMK A01 T02110163  RH  074%=      5-min Rain = 0
KHA2 141020Z 03002KT 21/16 A3001 RMK A01 T02110164  RH  074%=      5-min Rain = 0
KHA2 141021Z 03002KT 21/17 A3001 RMK A01 T02110165  RH  075%=      5-min Rain = 0
KHA2 141022Z 03002KT 21/17 A3001 RMK A01 T02110167  RH  076%=      5-min Rain = 0
KHA2 141023Z 03002KT 21/17 A3001 RMK A01 T02110166  RH  075%=      5-min Rain = 0
KHA2 141024Z 03003KT 21/17 A3001 RMK A01 T02120165  RH  075%=      5-min Rain = 0
KHA2 141025Z 03003KT 21/17 A3001 RMK A01 T02120165  RH  075%=      5-min Rain = 0
KHA2 141026Z 03003KT 21/17 A3001 RMK A01 T02120166  RH  075%=      5-min Rain = 0
KHA2 141027Z 03003KT 21/17 A3001 RMK A01 T02120165  RH  074%=      5-min Rain = 0
KHA2 141028Z 02003KT 21/17 A3001 RMK A01 T02120166  RH  075%=      5-min Rain = 0
KHA2 141029Z 02003KT 21/17 A3001 RMK A01 T02120166  RH  075%=      5-min Rain = 0
KHA2 141030Z 02003KT 21/17 A3001 RMK A01 T02120165  RH  075%=      5-min Rain = 0
KHA2 141031Z 03003KT 21/17 A3001 RMK A01 T02110165  RH  075%=      5-min Rain = 0
KHA2 141032Z 03003KT 21/17 A3001 RMK A01 T02100165  RH  075%=      5-min Rain = 0
KHA2 141033Z 03003KT 21/17 A3001 RMK A01 T02100167  RH  076%=      5-min Rain = 0
KHA2 141034Z 03003KT 21/17 A3001 RMK A01 T02100168  RH  077%=      5-min Rain = 0
KHA2 141035Z 03004KT 21/17 A3001 RMK A01 T02100167  RH  077%=      5-min Rain = 0
KHA2 141036Z 02004KT 21/17 A3001 RMK A01 T02100167  RH  076%=      5-min Rain = 0
KHA2 141037Z 02004KT 21/17 A3001 RMK A01 T02100166  RH  076%=      5-min Rain = 0
KHA2 141038Z 02004KT 21/16 A3001 RMK A01 T02090162  RH  075%=      5-min Rain = 0
KHA2 141039Z 02004KT 21/16 A3001 RMK A01 T02080162  RH  075%=      5-min Rain = 0
KHA2 141040Z 02004KT 21/16 A3001 RMK A01 T02070161  RH  075%=      5-min Rain = 0
KHA2 141041Z 02004KT 21/16 A3001 RMK A01 T02060160  RH  075%=      5-min Rain = 0
KHA2 141042Z 02004KT 21/16 A3001 RMK A01 T02050160  RH  075%=      5-min Rain = 0
KHA2 141043Z 02004KT 21/16 A3001 RMK A01 T02050157  RH  074%=      5-min Rain = 0
KHA2 141044Z 02004KT 20/16 A3001 RMK A01 T02040155  RH  074%=      5-min Rain = 0
KHA2 141045Z 03004KT 20/16 A3001 RMK A01 T02030156  RH  074%=      5-min Rain = 0
KHA2 141046Z 03004KT 20/16 A3001 RMK A01 T02030155  RH  074%=      5-min Rain = 0
KHA2 141047Z 03004KT 20/16 A3001 RMK A01 T02030156  RH  075%=      5-min Rain = 0
KHA2 141048Z 03004KT 20/16 A3001 RMK A01 T02020157  RH  075%=      5-min Rain = 0
KHA2 141049Z 03004KT 20/16 A3001 RMK A01 T02020159  RH  076%=      5-min Rain = 0
KHA2 141050Z 03004KT 20/16 A3001 RMK A01 T02030159  RH  076%=      5-min Rain = 0
KHA2 141051Z 02004KT 20/16 A3001 RMK A01 T02030159  RH  076%=      5-min Rain = 0
KHA2 141052Z 02004KT 20/16 A3001 RMK A01 T02030160  RH  076%=      5-min Rain = 0
KHA2 141053Z 01004KT 20/16 A3001 RMK A01 T02040159  RH  076%=      5-min Rain = 0
KHA2 141054Z 01004KT 20/16 A3001 RMK A01 T02040159  RH  075%=      5-min Rain = 0
KHA2 141055Z 36004KT 20/16 A3001 RMK A01 T02040161  RH  076%=      5-min Rain = 0
KHA2 141056Z 35004KT 20/16 A3001 RMK A01 T02040162  RH  077%=      5-min Rain = 0
KHA2 141057Z 35004KT 20/16 A3001 RMK A01 T02040163  RH  077%=      5-min Rain = 0
KHA2 141058Z 34004KT 21/16 A3001 RMK A01 T02050162  RH  076%=      5-min Rain = 0
KHA2 141059Z 34004KT 21/16 A3001 RMK A01 T02050162  RH  076%=      5-min Rain = 0
KHA2 141100Z 33003KT 21/16 A3001 RMK A01 T02050163  RH  077%=      5-min Rain = 0
KHA2 141101Z 33003KT 21/16 A3001 RMK A01 T02050164  RH  077%=      5-min Rain = 0
KHA2 141102Z 33003KT 21/17 A3001 RMK A01 T02060165  RH  077%=      5-min Rain = 0
KHA2 141103Z 34003KT 21/17 A3001 RMK A01 T02060165  RH  077%=      5-min Rain = 0
KHA2 141104Z 35004KT 21/17 A3001 RMK A01 T02060166  RH  077%=      5-min Rain = 0
KHA2 141105Z 35004KT 21/17 A3001 RMK A01 T02060166  RH  077%=      5-min Rain = 0
KHA2 141106Z 35004KT 21/17 A3001 RMK A01 T02060166  RH  078%=      5-min Rain = 0
KHA2 141107Z 36003KT 21/17 A3001 RMK A01 T02060165  RH  078%=      5-min Rain = 0
KHA2 141108Z 01003KT 21/17 A3001 RMK A01 T02060166  RH  078%=      5-min Rain = 0
KHA2 141109Z 02004KT 21/17 A3001 RMK A01 T02050166  RH  078%=      5-min Rain = 0
KHA2 141110Z 03004KT 21/17 A3001 RMK A01 T02050166  RH  078%=      5-min Rain = 0
KHA2 141111Z 03004KT 21/17 A3001 RMK A01 T02050167  RH  079%=      5-min Rain = 0
KHA2 141112Z 03005KT 21/17 A3001 RMK A01 T02060169  RH  079%=      5-min Rain = 0
KHA2 141113Z 03004KT 21/17 A3001 RMK A01 T02060168  RH  079%=      5-min Rain = 0
KHA2 141114Z 03004KT 21/17 A3001 RMK A01 T02060166  RH  077%=      5-min Rain = 0
KHA2 141115Z 02004KT 21/16 A3001 RMK A01 T02060164  RH  077%=      5-min Rain = 0
KHA2 141116Z 02004KT 20/16 A3001 RMK A01 T02040163  RH  077%=      5-min Rain = 0
KHA2 141117Z 02004KT 20/16 A3001 RMK A01 T02040162  RH  077%=      5-min Rain = 0
KHA2 141118Z 01003KT 20/16 A3001 RMK A01 T02030160  RH  076%=      5-min Rain = 0
KHA2 141119Z 01003KT 20/16 A3001 RMK A01 T02020159  RH  076%=      5-min Rain = 0
KHA2 141120Z 01004KT 20/16 A3001 RMK A01 T02020160  RH  077%=      5-min Rain = 0
KHA2 141121Z 00004KT 20/16 A3001 RMK A01 T02020160  RH  077%=      5-min Rain = 0
KHA2 141122Z 00003KT 20/16 A3001 RMK A01 T02020163  RH  078%=      5-min Rain = 0
KHA2 141123Z 00003KT 20/17 A3001 RMK A01 T02020165  RH  079%=      5-min Rain = 0
KHA2 141124Z 36004KT 20/17 A3001 RMK A01 T02030168  RH  080%=      5-min Rain = 0
KHA2 141125Z 35004KT 20/17 A3001 RMK A01 T02040168  RH  080%=      5-min Rain = 0
KHA2 141126Z 34004KT 20/17 A3002 RMK A01 T02040167  RH  079%=      5-min Rain = 0
KHA2 141127Z 34004KT 20/17 A3002 RMK A01 T02040166  RH  079%=      5-min Rain = 0
KHA2 141128Z 35004KT 20/17 A3002 RMK A01 T02040166  RH  079%=      5-min Rain = 0
KHA2 141129Z 35005KT 20/17 A3002 RMK A01 T02040165  RH  078%=      5-min Rain = 0
KHA2 141130Z 34006KT 20/16 A3002 RMK A01 T02030163  RH  078%=      5-min Rain = 0
KHA2 141131Z 33008KT 20/16 A3003 RMK A01 T02030163  RH  078%=      5-min Rain = 0
KHA2 141132Z 32011KT 20/16 A3003 RMK A01 T02020164  RH  079%=      5-min Rain = 0
KHA2 141133Z 32016KT 20/17 A3004 RMK A01 T02020166  RH  079%=      5-min Rain = 0
KHA2 141134Z 32015KT 20/17 A3004 RMK A01 T02020167  RH  080%=      5-min Rain = 0
KHA2 141135Z 32013KT 20/17 A3004 RMK A01 T02020169  RH  081%=      5-min Rain = 0
KHA2 141136Z 34009KT 21/18 A3004 RMK A01 T02060178  RH  084%=      5-min Rain = 0
KHA2 141137Z 34008KT 21/18 A3004 RMK A01 T02100179  RH  082%=      5-min Rain = 0
KHA2 141138Z 33006KT 21/18 A3004 RMK A01 T02110180  RH  082%=      5-min Rain = 0
KHA2 141139Z 33006KT 21/18 A3004 RMK A01 T02120179  RH  082%=      5-min Rain = 0
KHA2 141140Z 33006KT 21/18 A3004 RMK A01 T02130180  RH  081%=      5-min Rain = 0
KHA2 141141Z 34006KT 21/18 A3004 RMK A01 T02140180  RH  081%=      5-min Rain = 0
KHA2 141142Z 33006KT 21/18 A3004 RMK A01 T02140180  RH  081%=      5-min Rain = 0
KHA2 141143Z 33005KT 21/18 A3004 RMK A01 T02140180  RH  081%=      5-min Rain = 0
KHA2 141144Z 33006KT 22/18 A3004 RMK A01 T02150179  RH  080%=      5-min Rain = 0
KHA2 141145Z 33008KT 22/18 A3004 RMK A01 T02150179  RH  080%=      5-min Rain = 0
KHA2 141146Z 33010KT 22/18 A3004 RMK A01 T02150178  RH  080%=      5-min Rain = 0
KHA2 141147Z 34010KT 22/18 A3004 RMK A01 T02150178  RH  080%=      5-min Rain = 0
KHA2 141148Z 32012KT 22/18 A3004 RMK A01 T02150179  RH  080%=      5-min Rain = 0
KHA2 141149Z 30012KT 22/18 A3005 RMK A01 T02150178  RH  079%=      5-min Rain = 0
KHA2 141150Z 30009KT 22/18 A3005 RMK A01 T02150176  RH  079%=      5-min Rain = 0
KHA2 141151Z 29005KT 21/18 A3005 RMK A01 T02140175  RH  079%=      5-min Rain = 0
KHA2 141152Z 25002KT 21/18 A3004 RMK A01 T02140175  RH  079%=      5-min Rain = 0
KHA2 141153Z 28001KT 21/18 A3004 RMK A01 T02140175  RH  079%=      5-min Rain = 0
KHA2 141154Z 29003KT 22/18 A3004 RMK A01 T02150176  RH  079%=      5-min Rain = 0
KHA2 141155Z 30005KT 22/18 A3004 RMK A01 T02160176  RH  078%=      5-min Rain = 0
KHA2 141156Z 30007KT 22/18 A3004 RMK A01 T02170176  RH  077%=      5-min Rain = 0
KHA2 141157Z 31008KT 22/18 A3004 RMK A01 T02180176  RH  077%=      5-min Rain = 0
KHA2 141158Z 31008KT 22/18 A3004 RMK A01 T02190176  RH  077%=      5-min Rain = 0
KHA2 141159Z 31009KT 22/18 A3004 RMK A01 T02190175  RH  076%=      5-min Rain = 0
KHA2 141200Z 31009KT 22/18 A3005 RMK A01 T02180175  RH  076%=      5-min Rain = 0
KHA2 141201Z 31008KT 22/18 A3005 RMK A01 T02190175  RH  076%=      5-min Rain = 0
KHA2 141202Z 30009KT 22/17 A3005 RMK A01 T02180174  RH  076%=      5-min Rain = 0
KHA2 141203Z 30009KT 22/17 A3005 RMK A01 T02170173  RH  076%=      5-min Rain = 0
KHA2 141204Z 31009KT 22/17 A3004 RMK A01 T02160173  RH  076%=      5-min Rain = 0
KHA2 141205Z 32010KT 22/17 A3004 RMK A01 T02150171  RH  076%=      5-min Rain = 0
KHA2 141206Z 33009KT 21/17 A3004 RMK A01 T02140170  RH  076%=      5-min Rain = 0
KHA2 141207Z 33010KT 21/17 A3003 RMK A01 T02130170  RH  076%=      5-min Rain = 0
KHA2 141208Z 34008KT 21/17 A3003 RMK A01 T02120170  RH  077%=      5-min Rain = 0
KHA2 141209Z 32007KT 21/17 A3004 RMK A01 T02110169  RH  077%=      5-min Rain = 0
KHA2 141210Z 30008KT 21/17 A3004 RMK A01 T02100169  RH  077%=      5-min Rain = 0
KHA2 141211Z 29009KT 21/17 A3005 RMK A01 T02100169  RH  078%=      5-min Rain = 0
KHA2 141212Z 30009KT 21/17 A3005 RMK A01 T02090170  RH  078%=      5-min Rain = 0
KHA2 141213Z 31009KT 21/17 A3004 RMK A01 T02100169  RH  078%=      5-min Rain = 0
KHA2 141214Z 31008KT 21/17 A3004 RMK A01 T02110170  RH  077%=      5-min Rain = 0
KHA2 141215Z 31008KT 21/17 A3004 RMK A01 T02110169  RH  077%=      5-min Rain = 0
KHA2 141216Z 31008KT 21/17 A3004 RMK A01 T02110170  RH  077%=      5-min Rain = 0
KHA2 141217Z 31008KT 21/17 A3004 RMK A01 T02110169  RH  077%=      5-min Rain = 0
KHA2 141218Z 32007KT 21/17 A3004 RMK A01 T02110169  RH  077%=      5-min Rain = 0
KHA2 141219Z 32007KT 21/17 A3004 RMK A01 T02110169  RH  077%=      5-min Rain = 0
KHA2 141220Z 32007KT 21/17 A3004 RMK A01 T02100169  RH  077%=      5-min Rain = 0
KHA2 141221Z 32007KT 21/17 A3004 RMK A01 T02100169  RH  077%=      5-min Rain = 0
KHA2 141222Z 32008KT 21/17 A3004 RMK A01 T02090169  RH  078%=      5-min Rain = 0
KHA2 141223Z 32008KT 21/17 A3004 RMK A01 T02090169  RH  078%=      5-min Rain = 0
KHA2 141224Z 32008KT 21/17 A3004 RMK A01 T02090169  RH  078%=      5-min Rain = 0
KHA2 141225Z 32008KT 21/17 A3004 RMK A01 T02090169  RH  078%=      5-min Rain = 0
KHA2 141226Z 32007KT 21/17 A3004 RMK A01 T02090169  RH  078%=      5-min Rain = 0
KHA2 141227Z 32007KT 21/17 A3004 RMK A01 T02090169  RH  078%=      5-min Rain = 0
KHA2 141228Z 32006KT 21/17 A3004 RMK A01 T02090169  RH  078%=      5-min Rain = 0
KHA2 141229Z 32007KT 21/17 A3004 RMK A01 T02090169  RH  078%=      5-min Rain = 0
KHA2 141230Z 32006KT 21/17 A3004 RMK A01 T02090169  RH  078%=      5-min Rain = 0
KHA2 141231Z 31006KT 21/17 A3004 RMK A01 T02090169  RH  078%=      5-min Rain = 0
KHA2 141232Z 32006KT 21/17 A3004 RMK A01 T02090169  RH  078%=      5-min Rain = 0
KHA2 141233Z 32007KT 21/17 A3004 RMK A01 T02090169  RH  078%=      5-min Rain = 0
KHA2 141234Z 32006KT 21/17 A3004 RMK A01 T02090170  RH  078%=      5-min Rain = 0
KHA2 141235Z 32006KT 21/17 A3004 RMK A01 T02090169  RH  078%=      5-min Rain = 0
KHA2 141236Z 31007KT 21/17 A3004 RMK A01 T02090169  RH  078%=      5-min Rain = 0
KHA2 141237Z 31006KT 21/17 A3004 RMK A01 T02100170  RH  078%=      5-min Rain = 0
KHA2 141238Z 30005KT 21/17 A3004 RMK A01 T02100170  RH  078%=      5-min Rain = 0
KHA2 141239Z 31006KT 21/17 A3004 RMK A01 T02100170  RH  078%=      5-min Rain = 0
KHA2 141240Z 31006KT 21/17 A3004 RMK A01 T02100170  RH  078%=      5-min Rain = 0
KHA2 141241Z 31006KT 21/17 A3004 RMK A01 T02100171  RH  078%=      5-min Rain = 0
KHA2 141242Z 31007KT 21/17 A3004 RMK A01 T02110171  RH  078%=      5-min Rain = 0
KHA2 141243Z 31007KT 21/17 A3004 RMK A01 T02110171  RH  078%=      5-min Rain = 0
KHA2 141244Z 31006KT 21/17 A3004 RMK A01 T02110172  RH  078%=      5-min Rain = 0
KHA2 141245Z 31007KT 21/17 A3004 RMK A01 T02120172  RH  078%=      5-min Rain = 0
KHA2 141246Z 31006KT 21/17 A3004 RMK A01 T02130173  RH  078%=      5-min Rain = 0
KHA2 141247Z 31005KT 21/17 A3004 RMK A01 T02140173  RH  078%=      5-min Rain = 0
KHA2 141248Z 31005KT 21/17 A3004 RMK A01 T02140173  RH  077%=      5-min Rain = 0
KHA2 141249Z 32005KT 21/17 A3004 RMK A01 T02140173  RH  077%=      5-min Rain = 0
KHA2 141250Z 32005KT 21/17 A3004 RMK A01 T02140173  RH  077%=      5-min Rain = 0
KHA2 141251Z 32006KT 21/17 A3004 RMK A01 T02140173  RH  077%=      5-min Rain = 0
KHA2 141252Z 32006KT 21/17 A3005 RMK A01 T02140173  RH  077%=      5-min Rain = 0
KHA2 141253Z 32007KT 21/17 A3005 RMK A01 T02140173  RH  077%=      5-min Rain = 0
KHA2 141254Z 31006KT 21/17 A3005 RMK A01 T02140173  RH  077%=      5-min Rain = 0
KHA2 141255Z 31006KT 21/17 A3005 RMK A01 T02140173  RH  077%=      5-min Rain = 0
KHA2 141256Z 31005KT 22/17 A3005 RMK A01 T02150173  RH  077%=      5-min Rain = 0
KHA2 141257Z 32006KT 22/17 A3005 RMK A01 T02150173  RH  077%=      5-min Rain = 0
KHA2 141258Z 32006KT 22/17 A3005 RMK A01 T02150173  RH  077%=      5-min Rain = 0
KHA2 141259Z 31006KT 22/17 A3005 RMK A01 T02150173  RH  077%=      5-min Rain = 0
KHA2 141300Z 32006KT 22/17 A3005 RMK A01 T02160174  RH  077%=      5-min Rain = 0
KHA2 141301Z 31006KT 22/17 A3005 RMK A01 T02170174  RH  077%=      5-min Rain = 0
KHA2 141302Z 31007KT 22/17 A3005 RMK A01 T02170174  RH  076%=      5-min Rain = 0
KHA2 141303Z 31006KT 22/18 A3005 RMK A01 T02180175  RH  076%=      5-min Rain = 0
KHA2 141304Z 31006KT 22/18 A3005 RMK A01 T02180175  RH  076%=      5-min Rain = 0
KHA2 141305Z 31007KT 22/18 A3005 RMK A01 T02190175  RH  076%=      5-min Rain = 0
KHA2 141306Z 30007KT 22/18 A3005 RMK A01 T02190175  RH  076%=      5-min Rain = 0
KHA2 141307Z 30006KT 22/18 A3005 RMK A01 T02200176  RH  076%=      5-min Rain = 0
KHA2 141308Z 30006KT 22/18 A3005 RMK A01 T02210176  RH  076%=      5-min Rain = 0
KHA2 141309Z 31006KT 22/18 A3005 RMK A01 T02210176  RH  075%=      5-min Rain = 0
KHA2 141310Z 31007KT 22/18 A3005 RMK A01 T02230176  RH  075%=      5-min Rain = 0
KHA2 141311Z 32006KT 22/18 A3005 RMK A01 T02230175  RH  075%=      5-min Rain = 0
KHA2 141312Z 31006KT 22/18 A3005 RMK A01 T02220175  RH  075%=      5-min Rain = 0
KHA2 141313Z 32006KT 22/18 A3005 RMK A01 T02230176  RH  074%=      5-min Rain = 0
KHA2 141314Z 31006KT 22/18 A3005 RMK A01 T02240176  RH  074%=      5-min Rain = 0
KHA2 141315Z 31006KT 22/18 A3005 RMK A01 T02240176  RH  074%=      5-min Rain = 0
KHA2 141316Z 30006KT 23/18 A3005 RMK A01 T02250176  RH  074%=      5-min Rain = 0
KHA2 141317Z 29006KT 23/18 A3005 RMK A01 T02250176  RH  074%=      5-min Rain = 0
KHA2 141318Z 30005KT 23/18 A3005 RMK A01 T02260177  RH  074%=      5-min Rain = 0
KHA2 141319Z 30006KT 23/18 A3005 RMK A01 T02260177  RH  074%=      5-min Rain = 0
KHA2 141320Z 31006KT 23/18 A3005 RMK A01 T02280177  RH  073%=      5-min Rain = 0
KHA2 141321Z 31006KT 23/18 A3005 RMK A01 T02280177  RH  073%=      5-min Rain = 0
KHA2 141322Z 31006KT 23/18 A3005 RMK A01 T02290178  RH  073%=      5-min Rain = 0
KHA2 141323Z 30006KT 23/18 A3005 RMK A01 T02300178  RH  072%=      5-min Rain = 0
KHA2 141324Z 31006KT 23/18 A3005 RMK A01 T02300178  RH  072%=      5-min Rain = 0
KHA2 141325Z 30006KT 23/18 A3005 RMK A01 T02310178  RH  072%=      5-min Rain = 0
KHA2 141326Z 30005KT 23/18 A3005 RMK A01 T02320178  RH  072%=      5-min Rain = 0
KHA2 141327Z 31006KT 23/18 A3005 RMK A01 T02330179  RH  071%=      5-min Rain = 0
KHA2 141328Z 31006KT 24/18 A3005 RMK A01 T02350179  RH  071%=      5-min Rain = 0
KHA2 141329Z 30005KT 24/18 A3005 RMK A01 T02350179  RH  071%=      5-min Rain = 0
KHA2 141330Z 30005KT 24/18 A3005 RMK A01 T02360179  RH  070%=      5-min Rain = 0
KHA2 141331Z 30005KT 24/18 A3005 RMK A01 T02360179  RH  070%=      5-min Rain = 0
KHA2 141332Z 30004KT 24/18 A3005 RMK A01 T02370180  RH  070%=      5-min Rain = 0
KHA2 141333Z 31004KT 24/18 A3005 RMK A01 T02380179  RH  070%=      5-min Rain = 0
KHA2 141334Z 31004KT 24/18 A3005 RMK A01 T02390180  RH  070%=      5-min Rain = 0
KHA2 141335Z 29003KT 24/18 A3005 RMK A01 T02400180  RH  069%=      5-min Rain = 0
KHA2 141336Z 29004KT 24/18 A3005 RMK A01 T02410180  RH  069%=      5-min Rain = 0
KHA2 141337Z 30004KT 24/18 A3005 RMK A01 T02420180  RH  068%=      5-min Rain = 0
KHA2 141338Z 29003KT 24/18 A3005 RMK A01 T02430180  RH  068%=      5-min Rain = 0
KHA2 141339Z 27003KT 24/18 A3005 RMK A01 T02440181  RH  068%=      5-min Rain = 0
KHA2 141340Z 29003KT 25/18 A3005 RMK A01 T02450180  RH  067%=      5-min Rain = 0
KHA2 141341Z 28002KT 25/18 A3005 RMK A01 T02460181  RH  067%=      5-min Rain = 0
KHA2 141342Z 27003KT 25/18 A3005 RMK A01 T02470180  RH  066%=      5-min Rain = 0
KHA2 141343Z 29003KT 25/18 A3005 RMK A01 T02480180  RH  066%=      5-min Rain = 0
KHA2 141344Z 29003KT 25/18 A3005 RMK A01 T02490180  RH  065%=      5-min Rain = 0
KHA2 141345Z 30004KT 25/18 A3005 RMK A01 T02500179  RH  065%=      5-min Rain = 0
KHA2 141346Z 29004KT 25/18 A3005 RMK A01 T02510181  RH  065%=      5-min Rain = 0
KHA2 141347Z 31004KT 25/18 A3004 RMK A01 T02520180  RH  064%=      5-min Rain = 0
KHA2 141348Z 31004KT 25/18 A3004 RMK A01 T02530181  RH  064%=      5-min Rain = 0
KHA2 141349Z 29004KT 25/18 A3004 RMK A01 T02540182  RH  064%=      5-min Rain = 0
KHA2 141350Z 29004KT 26/18 A3005 RMK A01 T02550182  RH  064%=      5-min Rain = 0
KHA2 141351Z 29004KT 26/18 A3005 RMK A01 T02570182  RH  063%=      5-min Rain = 0
KHA2 141352Z 29004KT 26/18 A3004 RMK A01 T02580181  RH  063%=      5-min Rain = 0
KHA2 141353Z 30003KT 26/18 A3004 RMK A01 T02590182  RH  062%=      5-min Rain = 0
KHA2 141354Z 30003KT 26/18 A3004 RMK A01 T02590182  RH  062%=      5-min Rain = 0
KHA2 141355Z 29004KT 26/18 A3004 RMK A01 T02600182  RH  062%=      5-min Rain = 0
KHA2 141356Z 28003KT 26/18 A3004 RMK A01 T02610181  RH  062%=      5-min Rain = 0
KHA2 141357Z 26003KT 26/18 A3004 RMK A01 T02620182  RH  061%=      5-min Rain = 0
KHA2 141358Z 26004KT 26/18 A3004 RMK A01 T02630182  RH  061%=      5-min Rain = 0
KHA2 141359Z 27004KT 26/18 A3004 RMK A01 T02640181  RH  060%=      5-min Rain = 0
KHA2 141400Z 26003KT 26/18 A3004 RMK A01 T02640180  RH  060%=      5-min Rain = 0
KHA2 141401Z 27003KT 27/18 A3004 RMK A01 T02650181  RH  060%=      5-min Rain = 0
KHA2 141402Z 26003KT 27/18 A3004 RMK A01 T02660183  RH  060%=      5-min Rain = 0
KHA2 141403Z 26004KT 27/18 A3004 RMK A01 T02670182  RH  059%=      5-min Rain = 0
KHA2 141404Z 27004KT 27/18 A3004 RMK A01 T02690183  RH  059%=      5-min Rain = 0
KHA2 141405Z 28004KT 27/18 A3004 RMK A01 T02700182  RH  059%=      5-min Rain = 0
KHA2 141406Z 27003KT 27/18 A3004 RMK A01 T02710181  RH  058%=      5-min Rain = 0
KHA2 141407Z 27004KT 27/18 A3004 RMK A01 T02710182  RH  058%=      5-min Rain = 0
KHA2 141408Z 27004KT 27/18 A3004 RMK A01 T02720181  RH  058%=      5-min Rain = 0
KHA2 141409Z 27004KT 27/18 A3005 RMK A01 T02720181  RH  057%=      5-min Rain = 0
KHA2 141410Z 28004KT 27/18 A3005 RMK A01 T02720181  RH  058%=      5-min Rain = 0
KHA2 141411Z 29003KT 27/18 A3005 RMK A01 T02730180  RH  057%=      5-min Rain = 0
KHA2 141412Z 28004KT 27/18 A3005 RMK A01 T02740181  RH  057%=      5-min Rain = 0
KHA2 141413Z 28004KT 28/18 A3005 RMK A01 T02750181  RH  056%=      5-min Rain = 0
KHA2 141414Z 29004KT 28/18 A3005 RMK A01 T02760182  RH  056%=      5-min Rain = 0
KHA2 141415Z 29004KT 28/18 A3005 RMK A01 T02780181  RH  056%=      5-min Rain = 0
KHA2 141416Z 30005KT 28/18 A3005 RMK A01 T02790182  RH  055%=      5-min Rain = 0
KHA2 141417Z 30003KT 28/18 A3005 RMK A01 T02800181  RH  055%=      5-min Rain = 0
KHA2 141418Z 30003KT 28/18 A3005 RMK A01 T02810181  RH  055%=      5-min Rain = 0
KHA2 141419Z 30004KT 28/18 A3005 RMK A01 T02820181  RH  054%=      5-min Rain = 0
KHA2 141420Z 31004KT 28/18 A3005 RMK A01 T02820181  RH  054%=      5-min Rain = 0
KHA2 141421Z 30004KT 28/18 A3005 RMK A01 T02820180  RH  054%=      5-min Rain = 0
KHA2 141422Z 30005KT 28/18 A3005 RMK A01 T02830179  RH  053%=      5-min Rain = 0
KHA2 141423Z 29004KT 28/18 A3005 RMK A01 T02840179  RH  053%=      5-min Rain = 0
KHA2 141424Z 29004KT 29/18 A3005 RMK A01 T02850178  RH  052%=      5-min Rain = 0
KHA2 141425Z 27004KT 29/18 A3005 RMK A01 T02860179  RH  052%=      5-min Rain = 0
KHA2 141426Z 28005KT 29/18 A3005 RMK A01 T02870178  RH  052%=      5-min Rain = 0
KHA2 141427Z 27005KT 29/18 A3005 RMK A01 T02880176  RH  051%=      5-min Rain = 0
KHA2 141428Z 27003KT 29/18 A3005 RMK A01 T02880178  RH  051%=      5-min Rain = 0
KHA2 141429Z 27003KT 29/18 A3005 RMK A01 T02880178  RH  051%=      5-min Rain = 0
KHA2 141430Z 29004KT 29/18 A3005 RMK A01 T02890180  RH  052%=      5-min Rain = 0
KHA2 141431Z 28005KT 29/18 A3005 RMK A01 T02910177  RH  050%=      5-min Rain = 0
KHA2 141432Z 29004KT 29/18 A3005 RMK A01 T02930177  RH  050%=      5-min Rain = 0
KHA2 141433Z 27004KT 29/18 A3005 RMK A01 T02940177  RH  049%=      5-min Rain = 0
KHA2 141434Z 26004KT 30/18 A3005 RMK A01 T02950178  RH  049%=      5-min Rain = 0
KHA2 141435Z 27004KT 30/18 A3005 RMK A01 T02970176  RH  048%=      5-min Rain = 0
KHA2 141436Z 31004KT 30/18 A3005 RMK A01 T02970178  RH  049%=      5-min Rain = 0
KHA2 141437Z 30003KT 30/18 A3005 RMK A01 T02970177  RH  049%=      5-min Rain = 0
KHA2 141438Z 27003KT 30/18 A3005 RMK A01 T02970179  RH  049%=      5-min Rain = 0
KHA2 141439Z 28003KT 30/18 A3005 RMK A01 T02990177  RH  048%=      5-min Rain = 0
KHA2 141440Z 30004KT 30/18 A3005 RMK A01 T03000176  RH  047%=      5-min Rain = 0
KHA2 141441Z 30004KT 30/18 A3005 RMK A01 T03000175  RH  047%=      5-min Rain = 0
KHA2 141442Z 31003KT 30/18 A3005 RMK A01 T03000175  RH  047%=      5-min Rain = 0
KHA2 141443Z 31004KT 30/18 A3005 RMK A01 T03010177  RH  047%=      5-min Rain = 0
KHA2 141444Z 30006KT 30/17 A3005 RMK A01 T03040173  RH  046%=      5-min Rain = 0
KHA2 141445Z 30006KT 31/17 A3005 RMK A01 T03050168  RH  044%=      5-min Rain = 0
KHA2 141446Z 29007KT 31/17 A3005 RMK A01 T03060168  RH  044%=      5-min Rain = 0
KHA2 141447Z 29005KT 31/16 A3005 RMK A01 T03070163  RH  042%=      5-min Rain = 0
KHA2 141448Z 28007KT 31/16 A3005 RMK A01 T03060162  RH  042%=      5-min Rain = 0
KHA2 141449Z 27008KT 31/17 A3005 RMK A01 T03070166  RH  043%=      5-min Rain = 0
KHA2 141450Z 26006KT 31/16 A3005 RMK A01 T03090164  RH  042%=      5-min Rain = 0
KHA2 141451Z 29005KT 31/17 A3005 RMK A01 T03110165  RH  042%=      5-min Rain = 0
KHA2 141452Z 27007KT 31/16 A3005 RMK A01 T03120162  RH  040%=      5-min Rain = 0
KHA2 141453Z 29005KT 31/15 A3005 RMK A01 T03120153  RH  038%=      5-min Rain = 0
KHA2 141454Z 29007KT 31/16 A3005 RMK A01 T03110159  RH  040%=      5-min Rain = 0
KHA2 141455Z 28006KT 31/16 A3005 RMK A01 T03120159  RH  040%=      5-min Rain = 0
KHA2 141456Z 27008KT 31/15 A3005 RMK A01 T03120154  RH  039%=      5-min Rain = 0
KHA2 141457Z 27007KT 31/15 A3005 RMK A01 T03130154  RH  038%=      5-min Rain = 0
KHA2 141458Z 27008KT 31/15 A3005 RMK A01 T03130152  RH  038%=      5-min Rain = 0
KHA2 141459Z 27010KT 31/15 A3005 RMK A01 T03140153  RH  038%=      5-min Rain = 0
KHA2 141500Z 28008KT 32/15 A3005 RMK A01 T03150153  RH  038%=      5-min Rain = 0
KHA2 141501Z 28009KT 32/15 A3005 RMK A01 T03150154  RH  038%=      5-min Rain = 0
KHA2 141502Z 27010KT 32/15 A3005 RMK A01 T03150153  RH  038%=      5-min Rain = 0
KHA2 141503Z 26008KT 31/15 A3005 RMK A01 T03140154  RH  038%=      5-min Rain = 0
KHA2 141504Z 27009KT 32/16 A3005 RMK A01 T03150156  RH  038%=      5-min Rain = 0
KHA2 141505Z 28010KT 32/15 A3005 RMK A01 T03180152  RH  037%=      5-min Rain = 0
KHA2 141506Z 28009KT 32/15 A3005 RMK A01 T03160149  RH  036%=      5-min Rain = 0
KHA2 141507Z 28008KT 32/15 A3005 RMK A01 T03150151  RH  037%=      5-min Rain = 0
KHA2 141508Z 27008KT 32/15 A3005 RMK A01 T03150154  RH  038%=      5-min Rain = 0
KHA2 141509Z 27008KT 32/16 A3005 RMK A01 T03170156  RH  038%=      5-min Rain = 0
KHA2 141510Z 27008KT 32/16 A3005 RMK A01 T03180156  RH  038%=      5-min Rain = 0
KHA2 141511Z 26008KT 32/16 A3005 RMK A01 T03180155  RH  037%=      5-min Rain = 0
KHA2 141512Z 26009KT 32/15 A3005 RMK A01 T03180154  RH  037%=      5-min Rain = 0
KHA2 141513Z 27011KT 32/15 A3005 RMK A01 T03200154  RH  037%=      5-min Rain = 0
KHA2 141514Z 27009KT 32/15 A3005 RMK A01 T03210153  RH  036%=      5-min Rain = 0
KHA2 141515Z 28007KT 32/15 A3005 RMK A01 T03200151  RH  036%=      5-min Rain = 0
KHA2 141516Z 27008KT 32/15 A3005 RMK A01 T03200154  RH  037%=      5-min Rain = 0
KHA2 141517Z 27009KT 32/15 A3005 RMK A01 T03210153  RH  036%=      5-min Rain = 0
KHA2 141518Z 27009KT 32/15 A3005 RMK A01 T03210153  RH  036%=      5-min Rain = 0
KHA2 141519Z 27009KT 32/15 A3005 RMK A01 T03200153  RH  036%=      5-min Rain = 0
KHA2 141520Z 27010KT 32/15 A3005 RMK A01 T03220154  RH  036%=      5-min Rain = 0
KHA2 141521Z 27008KT 32/15 A3005 RMK A01 T03220153  RH  036%=      5-min Rain = 0
KHA2 141522Z 27008KT 32/15 A3005 RMK A01 T03220154  RH  036%=      5-min Rain = 0
KHA2 141523Z 28007KT 32/15 A3005 RMK A01 T03220154  RH  036%=      5-min Rain = 0
KHA2 141524Z 28010KT 32/15 A3005 RMK A01 T03240154  RH  036%=      5-min Rain = 0
KHA2 141525Z 28010KT 32/15 A3005 RMK A01 T03240152  RH  035%=      5-min Rain = 0
KHA2 141526Z 29010KT 32/15 A3005 RMK A01 T03240154  RH  036%=      5-min Rain = 0
KHA2 141527Z 29009KT 32/15 A3005 RMK A01 T03240152  RH  035%=      5-min Rain = 0
KHA2 141528Z 28009KT 32/15 A3005 RMK A01 T03240152  RH  035%=      5-min Rain = 0
KHA2 141529Z 27009KT 33/15 A3005 RMK A01 T03250150  RH  035%=      5-min Rain = 0
KHA2 141530Z 27009KT 32/15 A3005 RMK A01 T03240154  RH  036%=      5-min Rain = 0
KHA2 141531Z 27009KT 32/16 A3005 RMK A01 T03240155  RH  036%=      5-min Rain = 0
KHA2 141532Z 28007KT 32/16 A3005 RMK A01 T03240156  RH  036%=      5-min Rain = 0
KHA2 141533Z 28008KT 32/16 A3005 RMK A01 T03240156  RH  036%=      5-min Rain = 0
KHA2 141534Z 28007KT 33/16 A3004 RMK A01 T03250156  RH  036%=      5-min Rain = 0
KHA2 141535Z 29008KT 33/16 A3004 RMK A01 T03260156  RH  036%=      5-min Rain = 0
KHA2 141536Z 27007KT 33/16 A3004 RMK A01 T03260156  RH  036%=      5-min Rain = 0
KHA2 141537Z 27010KT 33/16 A3004 RMK A01 T03300156  RH  035%=      5-min Rain = 0
KHA2 141538Z 26008KT 33/15 A3004 RMK A01 T03300154  RH  035%=      5-min Rain = 0
KHA2 141539Z 27008KT 33/16 A3005 RMK A01 T03300155  RH  035%=      5-min Rain = 0
KHA2 141540Z 27007KT 33/16 A3004 RMK A01 T03290156  RH  035%=      5-min Rain = 0
KHA2 141541Z 29007KT 33/16 A3004 RMK A01 T03280158  RH  036%=      5-min Rain = 0
KHA2 141542Z 29006KT 33/16 A3005 RMK A01 T03310157  RH  035%=      5-min Rain = 0
KHA2 141543Z 30006KT 33/16 A3004 RMK A01 T03310159  RH  036%=      5-min Rain = 0
KHA2 141544Z 27008KT 33/16 A3004 RMK A01 T03320155  RH  035%=      5-min Rain = 0
KHA2 141545Z 26009KT 33/15 A3004 RMK A01 T03330153  RH  034%=      5-min Rain = 0
KHA2 141546Z 27009KT 33/15 A3004 RMK A01 T03320154  RH  034%=      5-min Rain = 0
KHA2 141547Z 29008KT 33/16 A3004 RMK A01 T03340155  RH  034%=      5-min Rain = 0
KHA2 141548Z 29007KT 34/16 A3005 RMK A01 T03370155  RH  034%=      5-min Rain = 0
KHA2 141549Z 28007KT 34/16 A3004 RMK A01 T03360156  RH  034%=      5-min Rain = 0
KHA2 141550Z 30007KT 34/15 A3004 RMK A01 T03360154  RH  034%=      5-min Rain = 0
KHA2 141551Z 28006KT 34/16 A3004 RMK A01 T03360155  RH  034%=      5-min Rain = 0
KHA2 141552Z 27008KT 34/16 A3005 RMK A01 T03380155  RH  033%=      5-min Rain = 0
KHA2 141553Z 25009KT 34/15 A3004 RMK A01 T03400149  RH  032%=      5-min Rain = 0
KHA2 141554Z 27010KT 34/15 A3004 RMK A01 T03400153  RH  033%=      5-min Rain = 0
KHA2 141555Z 26008KT 34/15 A3004 RMK A01 T03420152  RH  032%=      5-min Rain = 0
KHA2 141556Z 26007KT 34/15 A3004 RMK A01 T03420152  RH  032%=      5-min Rain = 0
KHA2 141557Z 26008KT 34/15 A3004 RMK A01 T03420150  RH  032%=      5-min Rain = 0
KHA2 141558Z 26007KT 34/15 A3004 RMK A01 T03400152  RH  032%=      5-min Rain = 0
KHA2 141559Z 28007KT 34/16 A3004 RMK A01 T03420155  RH  033%=      5-min Rain = 0
KHA2 141600Z 29009KT 34/15 A3004 RMK A01 T03430152  RH  032%=      5-min Rain = 0
KHA2 141601Z 29006KT 34/15 A3004 RMK A01 T03420151  RH  032%=      5-min Rain = 0
KHA2 141602Z 29009KT 34/15 A3004 RMK A01 T03430154  RH  032%=      5-min Rain = 0
KHA2 141603Z 30008KT 34/15 A3004 RMK A01 T03440153  RH  032%=      5-min Rain = 0
KHA2 141604Z 29008KT 35/15 A3004 RMK A01 T03450152  RH  031%=      5-min Rain = 0
KHA2 141605Z 26006KT 35/15 A3004 RMK A01 T03450151  RH  031%=      5-min Rain = 0
KHA2 141606Z 26006KT 34/15 A3004 RMK A01 T03440153  RH  032%=      5-min Rain = 0
KHA2 141607Z 29006KT 34/15 A3004 RMK A01 T03440153  RH  032%=      5-min Rain = 0
KHA2 141608Z 30008KT 35/15 A3004 RMK A01 T03460151  RH  031%=      5-min Rain = 0
KHA2 141609Z 27008KT 35/15 A3004 RMK A01 T03500154  RH  031%=      5-min Rain = 0
KHA2 141610Z 29007KT 35/15 A3004 RMK A01 T03520150  RH  030%=      5-min Rain = 0
KHA2 141611Z 29007KT 35/15 A3004 RMK A01 T03510152  RH  030%=      5-min Rain = 0
KHA2 141612Z 29007KT 35/15 A3004 RMK A01 T03500151  RH  030%=      5-min Rain = 0
KHA2 141613Z 31007KT 35/15 A3004 RMK A01 T03500149  RH  030%=      5-min Rain = 0
KHA2 141614Z 31009KT 35/15 A3004 RMK A01 T03510150  RH  030%=      5-min Rain = 0
KHA2 141615Z 30009KT 35/15 A3004 RMK A01 T03530150  RH  030%=      5-min Rain = 0
KHA2 141616Z 30008KT 36/15 A3004 RMK A01 T03550148  RH  029%=      5-min Rain = 0
KHA2 141617Z 28008KT 36/15 A3004 RMK A01 T03560146  RH  029%=      5-min Rain = 0
KHA2 141618Z 29010KT 35/14 A3004 RMK A01 T03530144  RH  029%=      5-min Rain = 0
KHA2 141619Z 28009KT 35/14 A3004 RMK A01 T03540142  RH  028%=      5-min Rain = 0
KHA2 141620Z 27009KT 36/14 A3004 RMK A01 T03550140  RH  028%=      5-min Rain = 0
KHA2 141621Z 28008KT 36/14 A3004 RMK A01 T03550142  RH  028%=      5-min Rain = 0
KHA2 141622Z 28009KT 36/14 A3004 RMK A01 T03560144  RH  028%=      5-min Rain = 0
KHA2 141623Z 27007KT 36/14 A3004 RMK A01 T03570142  RH  028%=      5-min Rain = 0
KHA2 141624Z 26007KT 36/14 A3004 RMK A01 T03570140  RH  027%=      5-min Rain = 0
KHA2 141625Z 29005KT 36/14 A3004 RMK A01 T03560141  RH  028%=      5-min Rain = 0
KHA2 141626Z 31007KT 36/14 A3004 RMK A01 T03570141  RH  028%=      5-min Rain = 0
KHA2 141627Z 29011KT 36/14 A3004 RMK A01 T03600142  RH  027%=      5-min Rain = 0
KHA2 141628Z 28009KT 36/14 A3004 RMK A01 T03630141  RH  027%=      5-min Rain = 0
KHA2 141629Z 28007KT 36/14 A3004 RMK A01 T03640138  RH  026%=      5-min Rain = 0
KHA2 141630Z 30006KT 36/14 A3004 RMK A01 T03630137  RH  026%=      5-min Rain = 0
KHA2 141631Z 30006KT 36/14 A3004 RMK A01 T03630139  RH  026%=      5-min Rain = 0
KHA2 141632Z 28007KT 37/14 A3004 RMK A01 T03650140  RH  026%=      5-min Rain = 0
KHA2 141633Z 27007KT 37/14 A3004 RMK A01 T03690139  RH  025%=      5-min Rain = 0
KHA2 141634Z 29007KT 37/14 A3004 RMK A01 T03680136  RH  025%=      5-min Rain = 0
KHA2 141635Z 31006KT 37/13 A3004 RMK A01 T03650134  RH  025%=      5-min Rain = 0
KHA2 141636Z 29008KT 37/13 A3004 RMK A01 T03660133  RH  025%=      5-min Rain = 0
KHA2 141637Z 27006KT 37/14 A3004 RMK A01 T03670136  RH  025%=      5-min Rain = 0
KHA2 141638Z 28008KT 37/13 A3004 RMK A01 T03670130  RH  024%=      5-min Rain = 0
KHA2 141639Z 25005KT 37/12 A3004 RMK A01 T03670124  RH  023%=      5-min Rain = 0
KHA2 141640Z 28006KT 37/13 A3004 RMK A01 T03660126  RH  024%=      5-min Rain = 0
KHA2 141641Z 29006KT 36/13 A3004 RMK A01 T03640132  RH  025%=      5-min Rain = 0
KHA2 141642Z 29009KT 37/13 A3004 RMK A01 T03660129  RH  024%=      5-min Rain = 0
KHA2 141643Z 31008KT 37/13 A3004 RMK A01 T03680127  RH  024%=      5-min Rain = 0
KHA2 141644Z 30008KT 37/12 A3004 RMK A01 T03690124  RH  023%=      5-min Rain = 0
KHA2 141645Z 27008KT 37/12 A3004 RMK A01 T03690124  RH  023%=      5-min Rain = 0
KHA2 141646Z 28006KT 37/12 A3004 RMK A01 T03700124  RH  023%=      5-min Rain = 0
KHA2 141647Z 30005KT 37/12 A3004 RMK A01 T03700118  RH  022%=      5-min Rain = 0
KHA2 141648Z 29005KT 37/12 A3004 RMK A01 T03700117  RH  022%=      5-min Rain = 0
KHA2 141649Z 30005KT 37/12 A3004 RMK A01 T03700117  RH  022%=      5-min Rain = 0
KHA2 141650Z 31006KT 37/12 A3004 RMK A01 T03700119  RH  022%=      5-min Rain = 0
KHA2 141651Z 30005KT 37/12 A3004 RMK A01 T03710116  RH  022%=      5-min Rain = 0
KHA2 141652Z 29004KT 37/12 A3004 RMK A01 T03690120  RH  022%=      5-min Rain = 0
KHA2 141653Z 29007KT 37/12 A3004 RMK A01 T03710120  RH  022%=      5-min Rain = 0
KHA2 141654Z 30009KT 37/12 A3004 RMK A01 T03720115  RH  021%=      5-min Rain = 0
KHA2 141655Z 30008KT 37/11 A3004 RMK A01 T03730114  RH  021%=      5-min Rain = 0
KHA2 141656Z 27007KT 37/12 A3004 RMK A01 T03710115  RH  021%=      5-min Rain = 0
KHA2 141657Z 30006KT 37/12 A3004 RMK A01 T03710115  RH  021%=      5-min Rain = 0
KHA2 141658Z 32008KT 37/12 A3004 RMK A01 T03710118  RH  022%=      5-min Rain = 0
KHA2 141659Z 30012KT 38/11 A3004 RMK A01 T03760111  RH  020%=      5-min Rain = 0
KHA2 141700Z 28009KT 38/09 A3004 RMK A01 T03760093  RH  018%=      5-min Rain = 0
KHA2 141701Z 26009KT 37/10 A3004 RMK A01 T03720097  RH  019%=      5-min Rain = 0
KHA2 141702Z 25006KT 37/10 A3004 RMK A01 T03730095  RH  019%=      5-min Rain = 0
KHA2 141703Z 25007KT 37/10 A3004 RMK A01 T03740098  RH  019%=      5-min Rain = 0
KHA2 141704Z 26007KT 37/10 A3004 RMK A01 T03730102  RH  019%=      5-min Rain = 0
KHA2 141705Z 27006KT 37/11 A3004 RMK A01 T03740106  RH  020%=      5-min Rain = 0
KHA2 141706Z 29009KT 38/11 A3004 RMK A01 T03750107  RH  020%=      5-min Rain = 0
KHA2 141707Z 26008KT 38/10 A3004 RMK A01 T03780103  RH  019%=      5-min Rain = 0
KHA2 141708Z 28005KT 38/11 A3004 RMK A01 T03780106  RH  019%=      5-min Rain = 0
KHA2 141709Z 30004KT 38/11 A3004 RMK A01 T03790110  RH  020%=      5-min Rain = 0
KHA2 141710Z 32009KT 38/11 A3004 RMK A01 T03800106  RH  019%=      5-min Rain = 0
KHA2 141711Z 33009KT 38/10 A3004 RMK A01 T03790102  RH  019%=      5-min Rain = 0
KHA2 141712Z 32008KT 38/10 A3004 RMK A01 T03750102  RH  019%=      5-min Rain = 0
KHA2 141713Z 32006KT 37/10 A3004 RMK A01 T03740102  RH  019%=      5-min Rain = 0
KHA2 141714Z 32005KT 37/10 A3004 RMK A01 T03730103  RH  020%=      5-min Rain = 0
KHA2 141715Z 32006KT 37/10 A3004 RMK A01 T03740104  RH  020%=      5-min Rain = 0
KHA2 141716Z 32007KT 38/11 A3004 RMK A01 T03750105  RH  020%=      5-min Rain = 0
KHA2 141717Z 32007KT 38/11 A3004 RMK A01 T03780106  RH  019%=      5-min Rain = 0
KHA2 141718Z 30006KT 38/11 A3004 RMK A01 T03800106  RH  019%=      5-min Rain = 0
KHA2 141719Z 30009KT 38/10 A3004 RMK A01 T03800104  RH  019%=      5-min Rain = 0
KHA2 141720Z 30006KT 38/10 A3004 RMK A01 T03800100  RH  019%=      5-min Rain = 0
KHA2 141721Z 28005KT 38/10 A3004 RMK A01 T03790104  RH  019%=      5-min Rain = 0
KHA2 141722Z 27004KT 38/11 A3004 RMK A01 T03780105  RH  019%=      5-min Rain = 0
KHA2 141723Z 33003KT 38/11 A3004 RMK A01 T03770107  RH  020%=      5-min Rain = 0
KHA2 141724Z 33008KT 38/11 A3004 RMK A01 T03790108  RH  020%=      5-min Rain = 0
KHA2 141725Z 32007KT 38/11 A3004 RMK A01 T03810105  RH  019%=      5-min Rain = 0
KHA2 141726Z 34008KT 38/11 A3004 RMK A01 T03810107  RH  019%=      5-min Rain = 0
KHA2 141727Z 31010KT 38/11 A3004 RMK A01 T03830108  RH  019%=      5-min Rain = 0
KHA2 141728Z 29007KT 39/11 A3004 RMK A01 T03850109  RH  019%=      5-min Rain = 0
KHA2 141729Z 27006KT 39/11 A3004 RMK A01 T03870106  RH  019%=      5-min Rain = 0
KHA2 141730Z 27004KT 39/10 A3004 RMK A01 T03850103  RH  018%=      5-min Rain = 0
KHA2 141731Z 28003KT 38/10 A3004 RMK A01 T03820103  RH  019%=      5-min Rain = 0
KHA2 141732Z 33003KT 38/11 A3003 RMK A01 T03820105  RH  019%=      5-min Rain = 0
KHA2 141733Z 35004KT 38/11 A3003 RMK A01 T03810105  RH  019%=      5-min Rain = 0
KHA2 141734Z 28008G13KT 38/11 A3003 RMK A01 T03820108  RH  019%=      5-min Rain = 0
KHA2 141735Z 26009KT 39/10 A3003 RMK A01 T03850104  RH  019%=      5-min Rain = 0
KHA2 141736Z 27005KT 38/10 A3003 RMK A01 T03810101  RH  019%=      5-min Rain = 0
KHA2 141737Z 25004KT 38/10 A3003 RMK A01 T03780102  RH  019%=      5-min Rain = 0
KHA2 141738Z 32005KT 38/10 A3003 RMK A01 T03780104  RH  019%=      5-min Rain = 0
KHA2 141739Z 32007G12KT 38/11 A3003 RMK A01 T03790106  RH  019%=      5-min Rain = 0
KHA2 141740Z 32007KT 38/10 A3003 RMK A01 T03820104  RH  019%=      5-min Rain = 0
KHA2 141741Z 31007KT 38/11 A3003 RMK A01 T03820105  RH  019%=      5-min Rain = 0
KHA2 141742Z 31006KT 38/11 A3003 RMK A01 T03840105  RH  019%=      5-min Rain = 0
KHA2 141743Z 25007KT 39/11 A3003 RMK A01 T03860106  RH  019%=      5-min Rain = 0
KHA2 141744Z 26010KT 39/11 A3003 RMK A01 T03860105  RH  018%=      5-min Rain = 0
KHA2 141745Z 26005KT 38/10 A3003 RMK A01 T03830102  RH  018%=      5-min Rain = 0
KHA2 141746Z 21003KT 38/10 A3003 RMK A01 T03810103  RH  019%=      5-min Rain = 0
KHA2 141747Z 21002KT 38/10 A3003 RMK A01 T03810102  RH  019%=      5-min Rain = 0
KHA2 141748Z 24003KT 38/10 A3003 RMK A01 T03810102  RH  019%=      5-min Rain = 0
KHA2 141749Z 29006KT 38/10 A3003 RMK A01 T03820103  RH  019%=      5-min Rain = 0
KHA2 141750Z 33008KT 38/10 A3003 RMK A01 T03830099  RH  018%=      5-min Rain = 0
KHA2 141751Z 33006KT 39/10 A3003 RMK A01 T03850103  RH  018%=      5-min Rain = 0
KHA2 141752Z 31002KT 39/11 A3003 RMK A01 T03870107  RH  019%=      5-min Rain = 0
KHA2 141753Z 28003KT 39/10 A3003 RMK A01 T03890100  RH  018%=      5-min Rain = 0
KHA2 141754Z 26003KT 39/10 A3003 RMK A01 T03870100  RH  018%=      5-min Rain = 0
KHA2 141755Z 29004KT 39/10 A3003 RMK A01 T03860100  RH  018%=      5-min Rain = 0
KHA2 141756Z 34003KT 39/11 A3003 RMK A01 T03870109  RH  019%=      5-min Rain = 0
KHA2 141757Z 31008KT 39/11 A3003 RMK A01 T03910106  RH  018%=      5-min Rain = 0
KHA2 141758Z 31007KT 39/11 A3003 RMK A01 T03900105  RH  018%=      5-min Rain = 0
KHA2 141759Z 33006KT 39/11 A3003 RMK A01 T03880106  RH  019%=      5-min Rain = 0
KHA2 141800Z 32006KT 39/11 A3002 RMK A01 T03880106  RH  019%=      5-min Rain = 0
KHA2 141801Z 27008KT 39/11 A3002 RMK A01 T03880109  RH  019%=      5-min Rain = 0
KHA2 141802Z 25009KT 39/11 A3002 RMK A01 T03930108  RH  018%=      5-min Rain = 0
KHA2 141803Z 23007KT 40/11 A3002 RMK A01 T03950105  RH  018%=      5-min Rain = 0
KHA2 141804Z 28006KT 39/11 A3002 RMK A01 T03930105  RH  018%=      5-min Rain = 0
KHA2 141805Z 28010KT 39/11 A3002 RMK A01 T03920106  RH  018%=      5-min Rain = 0
KHA2 141806Z 26007KT 39/10 A3002 RMK A01 T03910103  RH  018%=      5-min Rain = 0
KHA2 141807Z 28005KT 39/10 A3002 RMK A01 T03880101  RH  018%=      5-min Rain = 0
KHA2 141808Z 25007KT 39/10 A3002 RMK A01 T03870103  RH  018%=      5-min Rain = 0
KHA2 141809Z 23003KT 39/10 A3002 RMK A01 T03880096  RH  017%=      5-min Rain = 0
KHA2 141810Z 21003KT 39/10 A3002 RMK A01 T03880096  RH  017%=      5-min Rain = 0
KHA2 141811Z 18003KT 39/10 A3002 RMK A01 T03870095  RH  017%=      5-min Rain = 0
KHA2 141812Z 16004KT 39/09 A3002 RMK A01 T03870093  RH  017%=      5-min Rain = 0
KHA2 141813Z 21006KT 39/10 A3002 RMK A01 T03860095  RH  017%=      5-min Rain = 0
KHA2 141814Z 22006KT 39/10 A3002 RMK A01 T03880099  RH  018%=      5-min Rain = 0
KHA2 141815Z 22005KT 39/10 A3002 RMK A01 T03910099  RH  017%=      5-min Rain = 0
KHA2 141816Z 26007G12KT 39/10 A3002 RMK A01 T03930102  RH  018%=      5-min Rain = 0
KHA2 141817Z 24007KT 40/10 A3002 RMK A01 T03980103  RH  017%=      5-min Rain = 0
KHA2 141818Z 23005KT 40/10 A3002 RMK A01 T03950098  RH  017%=      5-min Rain = 0
KHA2 141819Z 25003KT 39/10 A3002 RMK A01 T03910098  RH  017%=      5-min Rain = 0
KHA2 141820Z 28004KT 39/10 A3002 RMK A01 T03890099  RH  017%=      5-min Rain = 0
KHA2 141821Z 30007KT 39/10 A3002 RMK A01 T03880097  RH  017%=      5-min Rain = 0
KHA2 141822Z 30006KT 39/10 A3002 RMK A01 T03860096  RH  017%=      5-min Rain = 0
KHA2 141823Z 31007KT 38/09 A3001 RMK A01 T03830094  RH  017%=      5-min Rain = 0
KHA2 141824Z 31005KT 38/10 A3001 RMK A01 T03820095  RH  018%=      5-min Rain = 0
KHA2 141825Z 28005KT 38/10 A3002 RMK A01 T03810095  RH  018%=      5-min Rain = 0
KHA2 141826Z 27004KT 38/09 A3002 RMK A01 T03810094  RH  018%=      5-min Rain = 0
KHA2 141827Z 22005KT 38/10 A3002 RMK A01 T03810096  RH  018%=      5-min Rain = 0
KHA2 141828Z 23006KT 38/09 A3002 RMK A01 T03820092  RH  017%=      5-min Rain = 0
KHA2 141829Z 22004KT 38/09 A3002 RMK A01 T03800092  RH  018%=      5-min Rain = 0
KHA2 141830Z 21005KT 38/10 A3002 RMK A01 T03800096  RH  018%=      5-min Rain = 0
KHA2 141831Z 20007KT 38/10 A3002 RMK A01 T03800104  RH  019%=      5-min Rain = 0
KHA2 141832Z 18006KT 38/12 A3002 RMK A01 T03790119  RH  021%=      5-min Rain = 0
KHA2 141833Z 20004KT 38/11 A3001 RMK A01 T03770112  RH  020%=      5-min Rain = 0
KHA2 141834Z 26001KT 38/11 A3001 RMK A01 T03770114  RH  021%=      5-min Rain = 0
KHA2 141835Z 30005KT 38/12 A3001 RMK A01 T03800115  RH  020%=      5-min Rain = 0
KHA2 141836Z 29004KT 38/11 A3001 RMK A01 T03810111  RH  020%=      5-min Rain = 0
KHA2 141837Z 25007KT 38/11 A3001 RMK A01 T03800112  RH  020%=      5-min Rain = 0
KHA2 141838Z 24003KT 38/11 A3001 RMK A01 T03780112  RH  020%=      5-min Rain = 0
KHA2 141839Z 21003KT 38/11 A3001 RMK A01 T03780112  RH  020%=      5-min Rain = 0
KHA2 141840Z 18003KT 38/11 A3001 RMK A01 T03760113  RH  021%=      5-min Rain = 0
KHA2 141841Z 21006KT 37/11 A3001 RMK A01 T03740113  RH  021%=      5-min Rain = 0
KHA2 141842Z 21005KT 37/10 A3001 RMK A01 T03740104  RH  020%=      5-min Rain = 0
KHA2 141843Z 22003KT 37/10 A3001 RMK A01 T03740103  RH  019%=      5-min Rain = 0
KHA2 141844Z 18003KT 38/10 A3001 RMK A01 T03750101  RH  019%=      5-min Rain = 0
KHA2 141845Z 15004KT 38/11 A3001 RMK A01 T03750105  RH  020%=      5-min Rain = 0
KHA2 141846Z 14006KT 37/11 A3001 RMK A01 T03740112  RH  021%=      5-min Rain = 0
KHA2 141847Z 12006KT 37/11 A3001 RMK A01 T03730111  RH  021%=      5-min Rain = 0
KHA2 141848Z 11004KT 37/11 A3001 RMK A01 T03710111  RH  021%=      5-min Rain = 0
KHA2 141849Z 11003KT 37/11 A3001 RMK A01 T03700109  RH  021%=      5-min Rain = 0
KHA2 141850Z 11003KT 37/11 A3001 RMK A01 T03690113  RH  021%=      5-min Rain = 0
KHA2 141851Z 13003KT 37/11 A3001 RMK A01 T03690114  RH  022%=      5-min Rain = 0
KHA2 141852Z 15003KT 37/11 A3001 RMK A01 T03680111  RH  021%=      5-min Rain = 0
KHA2 141853Z 13002KT 37/11 A3001 RMK A01 T03680112  RH  021%=      5-min Rain = 0
KHA2 141854Z 15002KT 37/12 A3001 RMK A01 T03690115  RH  022%=      5-min Rain = 0
KHA2 141855Z 15003KT 37/11 A3001 RMK A01 T03690113  RH  021%=      5-min Rain = 0
KHA2 141856Z 15004KT 37/11 A3001 RMK A01 T03700113  RH  021%=      5-min Rain = 0
KHA2 141857Z 15004KT 37/11 A3001 RMK A01 T03710106  RH  020%=      5-min Rain = 0
KHA2 141858Z 15008KT 37/11 A3001 RMK A01 T03720113  RH  021%=      5-min Rain = 0
KHA2 141859Z 14007KT 37/11 A3001 RMK A01 T03720110  RH  021%=      5-min Rain = 0
KHA2 141900Z 16004KT 37/11 A3001 RMK A01 T03720109  RH  020%=      5-min Rain = 0
KHA2 141901Z 16004KT 37/11 A3001 RMK A01 T03720107  RH  020%=      5-min Rain = 0
KHA2 141902Z 17003KT 37/11 A3001 RMK A01 T03720110  RH  021%=      5-min Rain = 0
KHA2 141903Z 14003KT 37/11 A3001 RMK A01 T03710113  RH  021%=      5-min Rain = 0
KHA2 141904Z 19003KT 37/11 A3001 RMK A01 T03710114  RH  021%=      5-min Rain = 0
KHA2 141905Z 23003KT 37/11 A3001 RMK A01 T03710111  RH  021%=      5-min Rain = 0
KHA2 141906Z 24003KT 37/11 A3001 RMK A01 T03720109  RH  020%=      5-min Rain = 0
KHA2 141907Z 26003KT 37/11 A3001 RMK A01 T03730108  RH  020%=      5-min Rain = 0
KHA2 141908Z 25004KT 37/11 A3001 RMK A01 T03730105  RH  020%=      5-min Rain = 0
KHA2 141909Z 25004KT 37/11 A3001 RMK A01 T03740107  RH  020%=      5-min Rain = 0
KHA2 141910Z 27004KT 38/11 A3001 RMK A01 T03760107  RH  020%=      5-min Rain = 0
KHA2 141911Z 28004KT 38/10 A3001 RMK A01 T03760104  RH  019%=      5-min Rain = 0
KHA2 141912Z 27005KT 38/10 A3001 RMK A01 T03760104  RH  019%=      5-min Rain = 0
KHA2 141913Z 27005KT 38/10 A3001 RMK A01 T03750104  RH  019%=      5-min Rain = 0
KHA2 141914Z 26003KT 37/10 A3001 RMK A01 T03740101  RH  019%=      5-min Rain = 0
KHA2 141915Z 23004KT 37/10 A3001 RMK A01 T03740102  RH  019%=      5-min Rain = 0
KHA2 141916Z 22003KT 37/11 A3001 RMK A01 T03730106  RH  020%=      5-min Rain = 0
KHA2 141917Z 19003KT 37/11 A3001 RMK A01 T03730109  RH  020%=      5-min Rain = 0
KHA2 141918Z 16006KT 37/11 A3001 RMK A01 T03720114  RH  021%=      5-min Rain = 0
KHA2 141919Z 16006KT 37/11 A3001 RMK A01 T03670111  RH  021%=      5-min Rain = 0
KHA2 141920Z 16007KT 36/11 A3001 RMK A01 T03620113  RH  022%=      5-min Rain = 0
KHA2 141921Z 17006KT 36/11 A3001 RMK A01 T03590114  RH  023%=      5-min Rain = 0
KHA2 141922Z 17008KT 36/12 A30 RMK A01 T03570117  RH  023%=      5-min Rain = 0
KHA2 141923Z 17009KT 36/12 A30 RMK A01 T03560115  RH  023%=      5-min Rain = 0
KHA2 141924Z 20007KT 36/12 A3001 RMK A01 T03550115  RH  023%=      5-min Rain = 0
KHA2 141925Z 27003KT 36/11 A30 RMK A01 T03570107  RH  022%=      5-min Rain = 0
KHA2 141926Z 21002KT 36/11 A30 RMK A01 T03600105  RH  021%=      5-min Rain = 0
KHA2 141927Z 15004KT 36/11 A30 RMK A01 T03610107  RH  022%=      5-min Rain = 0
KHA2 141928Z 21005KT 36/10 A30 RMK A01 T03620103  RH  021%=      5-min Rain = 0
KHA2 141929Z 18006KT 36/11 A30 RMK A01 T03640105  RH  021%=      5-min Rain = 0
KHA2 141930Z 20007KT 36/11 A30 RMK A01 T03640106  RH  021%=      5-min Rain = 0
KHA2 141931Z 17007KT 37/11 A30 RMK A01 T03650109  RH  021%=      5-min Rain = 0
KHA2 141932Z 17007KT 36/11 A30 RMK A01 T03640109  RH  021%=      5-min Rain = 0
KHA2 141933Z 17007KT 36/11 A30 RMK A01 T03620109  RH  022%=      5-min Rain = 0
KHA2 141934Z 16008KT 36/11 A30 RMK A01 T03610107  RH  022%=      5-min Rain = 0
KHA2 141935Z 16007KT 36/10 A30 RMK A01 T03600104  RH  021%=      5-min Rain = 0
KHA2 141936Z 16008KT 36/11 A30 RMK A01 T03590107  RH  022%=      5-min Rain = 0
KHA2 141937Z 15008KT 36/10 A30 RMK A01 T03590103  RH  021%=      5-min Rain = 0
KHA2 141938Z 16007KT 36/10 A30 RMK A01 T03590103  RH  021%=      5-min Rain = 0
KHA2 141939Z 15009KT 36/10 A30 RMK A01 T03590104  RH  021%=      5-min Rain = 0
KHA2 141940Z 15011KT 36/10 A30 RMK A01 T03590103  RH  021%=      5-min Rain = 0
KHA2 141941Z 16012KT 36/10 A30 RMK A01 T03590102  RH  021%=      5-min Rain = 0
KHA2 141942Z 15014KT 36/11 A30 RMK A01 T03590106  RH  022%=      5-min Rain = 0
KHA2 141943Z 15014KT 36/11 A30 RMK A01 T03580106  RH  022%=      5-min Rain = 0
KHA2 141944Z 14014KT 36/11 A2999 RMK A01 T03560107  RH  022%=      5-min Rain = 0
KHA2 141945Z 16012KT 36/11 A30 RMK A01 T03550109  RH  023%=      5-min Rain = 0
KHA2 141946Z 17010KT 35/11 A30 RMK A01 T03530113  RH  023%=      5-min Rain = 0
KHA2 141947Z 16008KT 35/11 A30 RMK A01 T03520112  RH  023%=      5-min Rain = 0
KHA2 141948Z 14009KT 35/11 A30 RMK A01 T03500112  RH  024%=      5-min Rain = 0
KHA2 141949Z 14011KT 35/12 A30 RMK A01 T03490115  RH  024%=      5-min Rain = 0
KHA2 141950Z 14012KT 35/11 A30 RMK A01 T03480112  RH  024%=      5-min Rain = 0
KHA2 141951Z 14011KT 35/11 A30 RMK A01 T03460112  RH  024%=      5-min Rain = 0
KHA2 141952Z 15011KT 34/12 A30 RMK A01 T03430118  RH  026%=      5-min Rain = 0
KHA2 141953Z 17011KT 34/12 A30 RMK A01 T03400121  RH  027%=      5-min Rain = 0
KHA2 141954Z 17010KT 34/13 A30 RMK A01 T03360129  RH  029%=      5-min Rain = 0
KHA2 141955Z 17010KT 33/13 A30 RMK A01 T03320131  RH  030%=      5-min Rain = 0
KHA2 141956Z 18009KT 33/14 A30 RMK A01 T03260136  RH  032%=      5-min Rain = 0
KHA2 141957Z 19009KT 32/14 A2999 RMK A01 T03230136  RH  032%=      5-min Rain = 0
KHA2 141958Z 20011KT 32/14 A30 RMK A01 T03210144  RH  034%=      5-min Rain = 0
KHA2 141959Z 20012KT 32/15 A2999 RMK A01 T03190146  RH  035%=      5-min Rain = 0
KHA2 142000Z 21012KT 32/15 A2999 RMK A01 T03160150  RH  037%=      5-min Rain = 0
KHA2 142001Z 21014KT 32/14 A2999 RMK A01 T03160138  RH  034%=      5-min Rain = 0
KHA2 142002Z 21014KT 32/13 A2999 RMK A01 T03210127  RH  031%=      5-min Rain = 0
KHA2 142003Z 21014KT 33/12 A2999 RMK A01 T03260124  RH  029%=      5-min Rain = 0
KHA2 142004Z 21010G15KT 33/12 A2999 RMK A01 T03310115  RH  027%=      5-min Rain = 0
KHA2 142005Z 22013G20KT 34/12 A2999 RMK A01 T03350115  RH  026%=      5-min Rain = 0
KHA2 142006Z 20010KT 34/11 A2999 RMK A01 T03370112  RH  025%=      5-min Rain = 0
KHA2 142007Z 20007KT 34/12 A2999 RMK A01 T03390116  RH  026%=      5-min Rain = 0
KHA2 142008Z 18009KT 34/12 A2999 RMK A01 T03390116  RH  026%=      5-min Rain = 0
KHA2 142009Z 19010KT 34/12 A2998 RMK A01 T03400115  RH  025%=      5-min Rain = 0
KHA2 142010Z 18012KT 34/12 A2998 RMK A01 T03400124  RH  027%=      5-min Rain = 0
KHA2 142011Z 19013KT 34/13 A2998 RMK A01 T03380125  RH  027%=      5-min Rain = 0
KHA2 142012Z 19015KT 34/12 A2998 RMK A01 T03370122  RH  027%=      5-min Rain = 0
KHA2 142013Z 18016KT 34/13 A2998 RMK A01 T03360126  RH  028%=      5-min Rain = 0
KHA2 142014Z 18013KT 33/13 A2998 RMK A01 T03340128  RH  029%=      5-min Rain = 0
KHA2 142015Z 18016KT 33/13 A2998 RMK A01 T03320129  RH  029%=      5-min Rain = 0
KHA2 142016Z 18015KT 33/12 A2999 RMK A01 T03320122  RH  028%=      5-min Rain = 0
KHA2 142017Z 18012KT 33/13 A2998 RMK A01 T03330128  RH  029%=      5-min Rain = 0
KHA2 142018Z 21018G24KT 33/14 A2998 RMK A01 T03300141  RH  032%=      5-min Rain = 0
KHA2 142019Z 21023KT 33/13 A2998 RMK A01 T03260134  RH  031%=      5-min Rain = 0
KHA2 142020Z 21025KT 31/15 A2998 RMK A01 T03140146  RH  036%=      5-min Rain = 0
KHA2 142021Z 21027KT 29/15 A2999 RMK A01 T02880147  RH  042%=      5-min Rain = 0.01
KHA2 142022Z 21024G35KT 29/12 A2999 RMK A01 T02850123  RH  037%=      5-min Rain = 0.01
KHA2 142023Z 19017G25KT 29/12 A2999 RMK A01 T02920121  RH  035%=      5-min Rain = 0
KHA2 142024Z 18018KT 29/13 A2999 RMK A01 T02930130  RH  037%=      5-min Rain = 0.01
KHA2 142025Z 16017KT 29/12 A2999 RMK A01 T02910122  RH  035%=      5-min Rain = 0
KHA2 142026Z 16016KT 29/13 A2999 RMK A01 T02910128  RH  037%=      5-min Rain = 0
KHA2 142027Z 17020KT 28/14 A2998 RMK A01 T02840136  RH  040%=      5-min Rain = 0
KHA2 142028Z 17025KT 28/13 A2998 RMK A01 T02830133  RH  040%=      5-min Rain = 0
KHA2 142029Z 17023KT 29/14 A2997 RMK A01 T02850136  RH  040%=      5-min Rain = 0
KHA2 142030Z 16027KT 29/14 A2997 RMK A01 T02890139  RH  040%=      5-min Rain = 0
KHA2 142031Z 17021G27KT 29/14 A2997 RMK A01 T02900135  RH  039%=      5-min Rain = 0
KHA2 142032Z 16019KT 29/14 A2997 RMK A01 T02910138  RH  039%=      5-min Rain = 0
KHA2 142033Z 16018KT 29/14 A2997 RMK A01 T02920138  RH  039%=      5-min Rain = 0
KHA2 142034Z 16016KT 30/14 A2997 RMK A01 T02960138  RH  038%=      5-min Rain = 0
KHA2 142035Z 15014KT 30/14 A2997 RMK A01 T02970144  RH  039%=      5-min Rain = 0
KHA2 142036Z 15012KT 30/14 A2997 RMK A01 T02950142  RH  039%=      5-min Rain = 0
KHA2 142037Z 16013KT 30/14 A2997 RMK A01 T02950142  RH  039%=      5-min Rain = 0
KHA2 142038Z 16011KT 30/14 A2997 RMK A01 T02970138  RH  038%=      5-min Rain = 0
KHA2 142039Z 15011KT 30/15 A2997 RMK A01 T02970146  RH  040%=      5-min Rain = 0
KHA2 142040Z 16010KT 29/15 A2997 RMK A01 T02940147  RH  041%=      5-min Rain = 0
KHA2 142041Z 16008KT 30/12 A2997 RMK A01 T02960115  RH  033%=      5-min Rain = 0
KHA2 142042Z 15010KT 31/13 A2997 RMK A01 T03050132  RH  035%=      5-min Rain = 0
KHA2 142043Z 15008KT 31/15 A2997 RMK A01 T03060147  RH  038%=      5-min Rain = 0
KHA2 142044Z 16009KT 30/16 A2997 RMK A01 T03030158  RH  042%=      5-min Rain = 0
KHA2 142045Z 14013KT 30/16 A2997 RMK A01 T02990156  RH  042%=      5-min Rain = 0
KHA2 142046Z 14014KT 30/15 A2996 RMK A01 T02990149  RH  040%=      5-min Rain = 0
KHA2 142047Z 14013KT 30/15 A2996 RMK A01 T03040149  RH  039%=      5-min Rain = 0
KHA2 142048Z 14013KT 31/16 A2996 RMK A01 T03050157  RH  041%=      5-min Rain = 0
KHA2 142049Z 13012G17KT 31/14 A2996 RMK A01 T03070143  RH  037%=      5-min Rain = 0
KHA2 142050Z 13013KT 32/14 A2996 RMK A01 T03180135  RH  033%=      5-min Rain = 0
KHA2 142051Z 14011KT 32/16 A2997 RMK A01 T03190155  RH  037%=      5-min Rain = 0
KHA2 142052Z 15011KT 32/16 A2997 RMK A01 T03160160  RH  039%=      5-min Rain = 0
KHA2 142053Z 14012KT 31/16 A2997 RMK A01 T03140156  RH  039%=      5-min Rain = 0
KHA2 142054Z 14012KT 31/15 A2997 RMK A01 T03140154  RH  038%=      5-min Rain = 0
KHA2 142055Z 13014KT 32/15 A2997 RMK A01 T03150153  RH  038%=      5-min Rain = 0
KHA2 142056Z 13013KT 32/16 A2997 RMK A01 T03160159  RH  039%=      5-min Rain = 0
KHA2 142057Z 12014KT 32/17 A2996 RMK A01 T03160171  RH  042%=      5-min Rain = 0
KHA2 142058Z 12017KT 32/17 A2996 RMK A01 T03160169  RH  041%=      5-min Rain = 0
KHA2 142059Z 12016KT 32/17 A2996 RMK A01 T03180170  RH  041%=      5-min Rain = 0
KHA2 142100Z 12016KT 32/17 A2996 RMK A01 T03190168  RH  040%=      5-min Rain = 0
KHA2 142101Z 12017KT 32/17 A2996 RMK A01 T03170165  RH  040%=      5-min Rain = 0
KHA2 142102Z 12017KT 32/16 A2996 RMK A01 T03160156  RH  038%=      5-min Rain = 0
KHA2 142103Z 12014KT 32/16 A2996 RMK A01 T03150162  RH  040%=      5-min Rain = 0
KHA2 142104Z 11015KT 31/16 A2996 RMK A01 T03120160  RH  040%=      5-min Rain = 0
KHA2 142105Z 10015G20KT 31/16 A2996 RMK A01 T03090163  RH  041%=      5-min Rain = 0
KHA2 142106Z 10017KT 31/16 A2996 RMK A01 T03060157  RH  040%=      5-min Rain = 0
KHA2 142107Z 10015KT 30/16 A2996 RMK A01 T03020161  RH  042%=      5-min Rain = 0
KHA2 142108Z 10014KT 30/16 A2996 RMK A01 T02990161  RH  043%=      5-min Rain = 0
KHA2 142109Z 10015KT 30/16 A2996 RMK A01 T02970161  RH  044%=      5-min Rain = 0
KHA2 142110Z 10016KT 30/16 A2996 RMK A01 T02970160  RH  044%=      5-min Rain = 0
KHA2 142111Z 11018KT 30/15 A2996 RMK A01 T02980152  RH  041%=      5-min Rain = 0
KHA2 142112Z 10019KT 30/15 A2996 RMK A01 T02990148  RH  040%=      5-min Rain = 0
KHA2 142113Z 11018KT 30/14 A2996 RMK A01 T03010144  RH  039%=      5-min Rain = 0
KHA2 142114Z 11017KT 30/15 A2996 RMK A01 T03020150  RH  040%=      5-min Rain = 0
KHA2 142115Z 11016KT 30/15 A2996 RMK A01 T03040148  RH  039%=      5-min Rain = 0
KHA2 142116Z 11015KT 31/15 A2996 RMK A01 T03070150  RH  039%=      5-min Rain = 0
KHA2 142117Z 11015KT 31/15 A2996 RMK A01 T03100149  RH  038%=      5-min Rain = 0
KHA2 142118Z 11014KT 31/16 A2996 RMK A01 T03110155  RH  039%=      5-min Rain = 0
KHA2 142119Z 11013KT 31/16 A2996 RMK A01 T03120159  RH  040%=      5-min Rain = 0
KHA2 142120Z 12015KT 31/16 A2996 RMK A01 T03130156  RH  039%=      5-min Rain = 0
KHA2 142121Z 12016KT 32/15 A2996 RMK A01 T03170146  RH  035%=      5-min Rain = 0
KHA2 142122Z 13012KT 32/15 A2996 RMK A01 T03210149  RH  035%=      5-min Rain = 0
KHA2 142123Z 12013KT 32/15 A2996 RMK A01 T03230149  RH  035%=      5-min Rain = 0
KHA2 142124Z 11015KT 32/15 A2995 RMK A01 T03240153  RH  036%=      5-min Rain = 0
KHA2 142125Z 12016KT 33/16 A2995 RMK A01 T03260157  RH  036%=      5-min Rain = 0
KHA2 142126Z 11017KT 33/16 A2996 RMK A01 T03280160  RH  036%=      5-min Rain = 0
KHA2 142127Z 11021KT 33/15 A2996 RMK A01 T03290151  RH  034%=      5-min Rain = 0
KHA2 142128Z 11020G25KT 33/15 A2996 RMK A01 T03250147  RH  034%=      5-min Rain = 0
KHA2 142129Z 12018KT 32/15 A2996 RMK A01 T03190147  RH  035%=      5-min Rain = 0
KHA2 142130Z 12019KT 32/15 A2996 RMK A01 T03150146  RH  036%=      5-min Rain = 0
KHA2 142131Z 11017KT 31/14 A2996 RMK A01 T03120142  RH  036%=      5-min Rain = 0
KHA2 142132Z 11019KT 31/14 A2996 RMK A01 T03090137  RH  035%=      5-min Rain = 0
KHA2 142133Z 11017KT 31/14 A2996 RMK A01 T03080140  RH  036%=      5-min Rain = 0
KHA2 142134Z 11020KT 31/14 A2996 RMK A01 T03070139  RH  036%=      5-min Rain = 0
KHA2 142135Z 11018KT 31/14 A2996 RMK A01 T03070137  RH  036%=      5-min Rain = 0
KHA2 142136Z 11016KT 31/14 A2996 RMK A01 T03060136  RH  035%=      5-min Rain = 0
KHA2 142137Z 12014KT 31/14 A2996 RMK A01 T03050140  RH  037%=      5-min Rain = 0
KHA2 142138Z 12017KT 31/14 A2996 RMK A01 T03060138  RH  036%=      5-min Rain = 0
KHA2 142139Z 12019G24KT 31/13 A2995 RMK A01 T03080133  RH  034%=      5-min Rain = 0
KHA2 142140Z 11020KT 31/13 A2995 RMK A01 T03100128  RH  033%=      5-min Rain = 0
KHA2 142141Z 11021KT 31/12 A2995 RMK A01 T03110123  RH  032%=      5-min Rain = 0
KHA2 142142Z 11022KT 31/12 A2995 RMK A01 T03100122  RH  032%=      5-min Rain = 0
KHA2 142143Z 11019KT 31/12 A2995 RMK A01 T03090124  RH  032%=      5-min Rain = 0
KHA2 142144Z 11016KT 31/13 A2995 RMK A01 T03070128  RH  033%=      5-min Rain = 0
KHA2 142145Z 12017KT 31/13 A2995 RMK A01 T03060131  RH  034%=      5-min Rain = 0
KHA2 142146Z 11018G23KT 31/13 A2996 RMK A01 T03050131  RH  034%=      5-min Rain = 0
KHA2 142147Z 11018KT 31/13 A2995 RMK A01 T03050131  RH  035%=      5-min Rain = 0
KHA2 142148Z 11016KT 31/13 A2995 RMK A01 T03050132  RH  035%=      5-min Rain = 0
KHA2 142149Z 11014KT 31/14 A2995 RMK A01 T03050135  RH  035%=      5-min Rain = 0
KHA2 142150Z 11014KT 31/14 A2995 RMK A01 T03060136  RH  035%=      5-min Rain = 0
KHA2 142151Z 11014KT 31/13 A2995 RMK A01 T03070132  RH  034%=      5-min Rain = 0
KHA2 142152Z 12012KT 31/14 A2995 RMK A01 T03080135  RH  035%=      5-min Rain = 0
KHA2 142153Z 12015KT 31/13 A2995 RMK A01 T03100132  RH  034%=      5-min Rain = 0
KHA2 142154Z 12015KT 31/13 A2995 RMK A01 T03130129  RH  033%=      5-min Rain = 0
KHA2 142155Z 11015KT 31/13 A2996 RMK A01 T03140133  RH  033%=      5-min Rain = 0
KHA2 142156Z 11014KT 31/13 A2996 RMK A01 T03140134  RH  033%=      5-min Rain = 0
KHA2 142157Z 11015KT 31/13 A2996 RMK A01 T03140134  RH  033%=      5-min Rain = 0
KHA2 142158Z 11015KT 31/13 A2996 RMK A01 T03140130  RH  032%=      5-min Rain = 0
KHA2 142159Z 11013KT 32/13 A2996 RMK A01 T03150131  RH  032%=      5-min Rain = 0
KHA2 142200Z 11013KT 32/13 A2996 RMK A01 T03170131  RH  032%=      5-min Rain = 0
KHA2 142201Z 11014KT 32/13 A2996 RMK A01 T03190131  RH  032%=      5-min Rain = 0
KHA2 142202Z 10012KT 32/13 A2996 RMK A01 T03220133  RH  032%=      5-min Rain = 0
KHA2 142203Z 10014G19KT 32/13 A2996 RMK A01 T03240130  RH  031%=      5-min Rain = 0
KHA2 142204Z 11017KT 32/12 A2996 RMK A01 T03240124  RH  030%=      5-min Rain = 0
KHA2 142205Z 11016G21KT 32/12 A2996 RMK A01 T03220124  RH  030%=      5-min Rain = 0
KHA2 142206Z 10019KT 32/12 A2997 RMK A01 T03210122  RH  030%=      5-min Rain = 0
KHA2 142207Z 10020KT 32/12 A2997 RMK A01 T03200117  RH  029%=      5-min Rain = 0
KHA2 142208Z 10019G24KT 32/12 A2997 RMK A01 T03190116  RH  029%=      5-min Rain = 0
KHA2 142209Z 09020KT 32/12 A2997 RMK A01 T03180118  RH  030%=      5-min Rain = 0
KHA2 142210Z 09021KT 32/12 A2997 RMK A01 T03150120  RH  030%=      5-min Rain = 0
KHA2 142211Z 09020KT 31/12 A2997 RMK A01 T03120121  RH  031%=      5-min Rain = 0
KHA2 142212Z 09017KT 31/12 A2997 RMK A01 T03080123  RH  032%=      5-min Rain = 0
KHA2 142213Z 09015G20KT 31/13 A2997 RMK A01 T03060127  RH  033%=      5-min Rain = 0
KHA2 142214Z 09016KT 31/13 A2997 RMK A01 T03060126  RH  033%=      5-min Rain = 0
KHA2 142215Z 09016KT 31/13 A2997 RMK A01 T03060126  RH  033%=      5-min Rain = 0
KHA2 142216Z 08015KT 31/13 A2997 RMK A01 T03070128  RH  034%=      5-min Rain = 0
KHA2 142217Z 08017KT 31/13 A2997 RMK A01 T03080127  RH  033%=      5-min Rain = 0
KHA2 142218Z 07016KT 31/12 A2997 RMK A01 T03090124  RH  032%=      5-min Rain = 0
KHA2 142219Z 06016KT 31/13 A2997 RMK A01 T03100127  RH  032%=      5-min Rain = 0
KHA2 142220Z 05016KT 31/14 A2997 RMK A01 T03100137  RH  035%=      5-min Rain = 0
KHA2 142221Z 06015KT 31/14 A2998 RMK A01 T03060142  RH  037%=      5-min Rain = 0
KHA2 142222Z 05017KT 31/14 A2997 RMK A01 T03050138  RH  036%=      5-min Rain = 0
KHA2 142223Z 06017KT 31/13 A2998 RMK A01 T03060132  RH  034%=      5-min Rain = 0
KHA2 142224Z 06017G22KT 31/13 A2997 RMK A01 T03070130  RH  034%=      5-min Rain = 0
KHA2 142225Z 07019G24KT 31/12 A2998 RMK A01 T03100122  RH  031%=      5-min Rain = 0
KHA2 142226Z 08021KT 31/12 A2998 RMK A01 T03140116  RH  030%=      5-min Rain = 0
KHA2 142227Z 07020KT 32/12 A2998 RMK A01 T03170117  RH  029%=      5-min Rain = 0
KHA2 142228Z 07021KT 32/12 A2997 RMK A01 T03170122  RH  030%=      5-min Rain = 0
KHA2 142229Z 07018KT 31/12 A2997 RMK A01 T03140123  RH  031%=      5-min Rain = 0
KHA2 142230Z 08016G22KT 31/12 A2997 RMK A01 T03120123  RH  032%=      5-min Rain = 0
KHA2 142231Z 08022KT 31/12 A2997 RMK A01 T03110120  RH  031%=      5-min Rain = 0
KHA2 142232Z 08020KT 31/12 A2998 RMK A01 T03100119  RH  031%=      5-min Rain = 0
KHA2 142233Z 08021KT 31/12 A2998 RMK A01 T03090119  RH  031%=      5-min Rain = 0
KHA2 142234Z 08021KT 31/12 A2998 RMK A01 T03080118  RH  031%=      5-min Rain = 0
KHA2 142235Z 08019KT 31/11 A2998 RMK A01 T03070114  RH  031%=      5-min Rain = 0
KHA2 142236Z 09018KT 31/12 A2998 RMK A01 T03070115  RH  031%=      5-min Rain = 0
KHA2 142237Z 08018KT 31/11 A2998 RMK A01 T03080113  RH  030%=      5-min Rain = 0
KHA2 142238Z 06020G25KT 31/12 A2998 RMK A01 T03090117  RH  031%=      5-min Rain = 0
KHA2 142239Z 07019KT 30/12 A2998 RMK A01 T03040124  RH  033%=      5-min Rain = 0
KHA2 142240Z 07016KT 30/13 A2998 RMK A01 T02990126  RH  035%=      5-min Rain = 0
KHA2 142241Z 07016KT 30/13 A2999 RMK A01 T02970129  RH  036%=      5-min Rain = 0
KHA2 142242Z 07014KT 30/13 A2999 RMK A01 T02960133  RH  037%=      5-min Rain = 0
KHA2 142243Z 08016KT 30/13 A2999 RMK A01 T02960130  RH  036%=      5-min Rain = 0
KHA2 142244Z 08016KT 30/13 A2999 RMK A01 T02960132  RH  037%=      5-min Rain = 0
KHA2 142245Z 07018G23KT 30/13 A30 RMK A01 T02960128  RH  036%=      5-min Rain = 0
KHA2 142246Z 07018KT 30/13 A30 RMK A01 T02970127  RH  035%=      5-min Rain = 0
KHA2 142247Z 07016KT 30/13 A30 RMK A01 T02970129  RH  036%=      5-min Rain = 0
KHA2 142248Z 07016KT 30/13 A30 RMK A01 T02970131  RH  036%=      5-min Rain = 0
KHA2 142249Z 07019KT 30/13 A30 RMK A01 T02970130  RH  036%=      5-min Rain = 0
KHA2 142250Z 07016KT 30/13 A30 RMK A01 T02960131  RH  036%=      5-min Rain = 0
KHA2 142251Z 08018KT 30/14 A30 RMK A01 T02950136  RH  038%=      5-min Rain = 0
KHA2 142252Z 07016KT 29/14 A30 RMK A01 T02920140  RH  039%=      5-min Rain = 0
KHA2 142253Z 06020KT 29/14 A30 RMK A01 T02910141  RH  040%=      5-min Rain = 0
KHA2 142254Z 07018KT 29/14 A30 RMK A01 T02890142  RH  041%=      5-min Rain = 0
KHA2 142255Z 07017KT 29/14 A30 RMK A01 T02890142  RH  041%=      5-min Rain = 0
KHA2 142256Z 07018KT 29/14 A30 RMK A01 T02890141  RH  040%=      5-min Rain = 0
KHA2 142257Z 07018KT 29/14 A2999 RMK A01 T02880139  RH  040%=      5-min Rain = 0
KHA2 142258Z 08016KT 29/14 A30 RMK A01 T02890136  RH  039%=      5-min Rain = 0
KHA2 142259Z 08017G22KT 29/14 A30 RMK A01 T02900137  RH  039%=      5-min Rain = 0
KHA2 142300Z 09019G24KT 29/14 A30 RMK A01 T02890136  RH  039%=      5-min Rain = 0
KHA2 142301Z 09015KT 29/14 A30 RMK A01 T02890137  RH  039%=      5-min Rain = 0
KHA2 142302Z 09015G21KT 29/14 A30 RMK A01 T02880138  RH  040%=      5-min Rain = 0
KHA2 142303Z 10017KT 29/14 A30 RMK A01 T02880136  RH  039%=      5-min Rain = 0
KHA2 142304Z 10019KT 29/13 A30 RMK A01 T02890133  RH  038%=      5-min Rain = 0
KHA2 142305Z 10018KT 29/13 A3001 RMK A01 T02910132  RH  038%=      5-min Rain = 0
KHA2 142306Z 10017KT 29/13 A30 RMK A01 T02910131  RH  037%=      5-min Rain = 0
KHA2 142307Z 10015G21KT 29/13 A30 RMK A01 T02920132  RH  037%=      5-min Rain = 0
KHA2 142308Z 10020KT 29/13 A30 RMK A01 T02930128  RH  036%=      5-min Rain = 0
KHA2 142309Z 11020G25KT 29/13 A30 RMK A01 T02940128  RH  036%=      5-min Rain = 0
KHA2 142310Z 10022G27KT 30/13 A30 RMK A01 T02950129  RH  036%=      5-min Rain = 0
KHA2 142311Z 10023KT 30/13 A30 RMK A01 T02950126  RH  035%=      5-min Rain = 0
KHA2 142312Z 11023KT 29/13 A30 RMK A01 T02940129  RH  036%=      5-min Rain = 0
KHA2 142313Z 11021KT 29/13 A2999 RMK A01 T02920128  RH  036%=      5-min Rain = 0
KHA2 142314Z 10022G27KT 29/13 A30 RMK A01 T02890131  RH  038%=      5-min Rain = 0
KHA2 142315Z 10021KT 29/13 A30 RMK A01 T02850134  RH  039%=      5-min Rain = 0
KHA2 142316Z 10021KT 28/13 A30 RMK A01 T02820134  RH  040%=      5-min Rain = 0
KHA2 142317Z 10019KT 28/14 A30 RMK A01 T02790135  RH  041%=      5-min Rain = 0
KHA2 142318Z 11019KT 28/13 A30 RMK A01 T02780134  RH  041%=      5-min Rain = 0
KHA2 142319Z 10020KT 28/13 A30 RMK A01 T02790134  RH  041%=      5-min Rain = 0
KHA2 142320Z 10018KT 28/14 A30 RMK A01 T02820135  RH  041%=      5-min Rain = 0
KHA2 142321Z 10020G26KT 29/13 A30 RMK A01 T02850134  RH  040%=      5-min Rain = 0
KHA2 142322Z 10021KT 29/13 A30 RMK A01 T02870132  RH  039%=      5-min Rain = 0
KHA2 142323Z 09021KT 29/13 A30 RMK A01 T02870132  RH  039%=      5-min Rain = 0
KHA2 142324Z 09021KT 29/13 A30 RMK A01 T02870131  RH  038%=      5-min Rain = 0
KHA2 142325Z 09019KT 29/13 A30 RMK A01 T02880131  RH  038%=      5-min Rain = 0
KHA2 142326Z 09021G26KT 29/13 A30 RMK A01 T02890133  RH  038%=      5-min Rain = 0
KHA2 142327Z 09019KT 29/13 A30 RMK A01 T02890132  RH  038%=      5-min Rain = 0
KHA2 142328Z 09019KT 29/14 A30 RMK A01 T02890135  RH  039%=      5-min Rain = 0
KHA2 142329Z 10022KT 29/13 A30 RMK A01 T02910133  RH  038%=      5-min Rain = 0
KHA2 142330Z 09019KT 29/14 A30 RMK A01 T02900135  RH  038%=      5-min Rain = 0
KHA2 142331Z 10017KT 29/14 A30 RMK A01 T02890137  RH  039%=      5-min Rain = 0
KHA2 142332Z 09018KT 29/14 A30 RMK A01 T02900136  RH  039%=      5-min Rain = 0
KHA2 142333Z 10017KT 29/14 A30 RMK A01 T02900136  RH  039%=      5-min Rain = 0
KHA2 142334Z 10016KT 29/14 A30 RMK A01 T02910136  RH  039%=      5-min Rain = 0
KHA2 142335Z 10018KT 29/14 A30 RMK A01 T02920136  RH  038%=      5-min Rain = 0
KHA2 142336Z 10020G25KT 29/14 A30 RMK A01 T02920135  RH  038%=      5-min Rain = 0
KHA2 142337Z 10021G26KT 29/13 A30 RMK A01 T02910132  RH  037%=      5-min Rain = 0
KHA2 142338Z 10021KT 29/13 A30 RMK A01 T02900131  RH  038%=      5-min Rain = 0
KHA2 142339Z 10018KT 29/13 A30 RMK A01 T02890131  RH  038%=      5-min Rain = 0
KHA2 142340Z 10019KT 29/13 A30 RMK A01 T02880132  RH  038%=      5-min Rain = 0
KHA2 142341Z 10021KT 29/13 A30 RMK A01 T02870133  RH  039%=      5-min Rain = 0
KHA2 142342Z 10021KT 29/13 A30 RMK A01 T02850131  RH  039%=      5-min Rain = 0
KHA2 142343Z 11021KT 28/13 A30 RMK A01 T02840130  RH  039%=      5-min Rain = 0
KHA2 142344Z 11021KT 28/13 A30 RMK A01 T02840129  RH  039%=      5-min Rain = 0
KHA2 142345Z 11019KT 28/13 A30 RMK A01 T02840130  RH  039%=      5-min Rain = 0
KHA2 142346Z 11017KT 28/13 A30 RMK A01 T02830130  RH  039%=      5-min Rain = 0
KHA2 142347Z 11017KT 28/13 A30 RMK A01 T02840131  RH  039%=      5-min Rain = 0
KHA2 142348Z 11018KT 28/13 A30 RMK A01 T02840131  RH  039%=      5-min Rain = 0
KHA2 142349Z 12017KT 29/13 A30 RMK A01 T02850130  RH  039%=      5-min Rain = 0
KHA2 142350Z 12017KT 29/13 A30 RMK A01 T02860134  RH  039%=      5-min Rain = 0
KHA2 142351Z 12018KT 28/14 A30 RMK A01 T02840136  RH  040%=      5-min Rain = 0
KHA2 142352Z 12017KT 28/13 A30 RMK A01 T02830134  RH  040%=      5-min Rain = 0
KHA2 142353Z 12017KT 28/14 A30 RMK A01 T02820136  RH  041%=      5-min Rain = 0
KHA2 142354Z 13019KT 28/14 A30 RMK A01 T02820135  RH  040%=      5-min Rain = 0
KHA2 142355Z 13018KT 28/14 A30 RMK A01 T02820135  RH  041%=      5-min Rain = 0
KHA2 142356Z 13017KT 28/14 A30 RMK A01 T02810136  RH  041%=      5-min Rain = 0
KHA2 142357Z 13015KT 28/14 A30 RMK A01 T02810139  RH  042%=      5-min Rain = 0
KHA2 142358Z 13016G21KT 28/14 A30 RMK A01 T02810139  RH  042%=      5-min Rain = 0
KHA2 142359Z 13015KT 28/14 A30 RMK A01 T02820137  RH  041%=      5-min Rain = 0
KHA2 150000Z 13017KT 28/14 A30 RMK A01 T02820135  RH  040%=      5-min Rain = 0
KHA2 150001Z 13017KT 28/14 A30 RMK A01 T02830136  RH  040%=      5-min Rain = 0
KHA2 150002Z 13019KT 28/14 A2999 RMK A01 T02830135  RH  040%=      5-min Rain = 0
KHA2 150003Z 13018KT 28/14 A2999 RMK A01 T02840135  RH  040%=      5-min Rain = 0
KHA2 150004Z 13018G23KT 28/14 A2999 RMK A01 T02840136  RH  040%=      5-min Rain = 0
KHA2 150005Z 13019KT 29/14 A2999 RMK A01 T02850136  RH  040%=      5-min Rain = 0
KHA2 150006Z 13022KT 29/14 A2999 RMK A01 T02860135  RH  040%=      5-min Rain = 0
KHA2 150007Z 12020KT 29/14 A2999 RMK A01 T02860135  RH  039%=      5-min Rain = 0
KHA2 150008Z 12020KT 29/13 A2999 RMK A01 T02870134  RH  039%=      5-min Rain = 0
KHA2 150009Z 13016KT 29/14 A30 RMK A01 T02870136  RH  039%=      5-min Rain = 0
KHA2 150010Z 13016KT 29/14 A30 RMK A01 T02890137  RH  039%=      5-min Rain = 0
KHA2 150011Z 13017KT 29/14 A30 RMK A01 T02900137  RH  039%=      5-min Rain = 0
KHA2 150012Z 13020KT 29/14 A30 RMK A01 T02910136  RH  038%=      5-min Rain = 0
KHA2 150013Z 13020KT 29/13 A30 RMK A01 T02910134  RH  038%=      5-min Rain = 0
KHA2 150014Z 13020KT 29/13 A30 RMK A01 T02910134  RH  038%=      5-min Rain = 0
KHA2 150015Z 13018KT 29/13 A30 RMK A01 T02900132  RH  038%=      5-min Rain = 0
KHA2 150016Z 13019KT 29/13 A30 RMK A01 T02900131  RH  038%=      5-min Rain = 0
KHA2 150017Z 13015KT 29/13 A30 RMK A01 T02900132  RH  038%=      5-min Rain = 0
KHA2 150018Z 13016KT 29/13 A3001 RMK A01 T02900133  RH  038%=      5-min Rain = 0
KHA2 150019Z 13014KT 29/13 A3001 RMK A01 T02910134  RH  038%=      5-min Rain = 0
KHA2 150020Z 14015KT 29/14 A3001 RMK A01 T02910135  RH  038%=      5-min Rain = 0
KHA2 150021Z 14017KT 29/13 A3001 RMK A01 T02910133  RH  038%=      5-min Rain = 0
KHA2 150022Z 14015KT 29/13 A3001 RMK A01 T02910130  RH  037%=      5-min Rain = 0
KHA2 150023Z 14014KT 29/13 A3001 RMK A01 T02900131  RH  037%=      5-min Rain = 0
KHA2 150024Z 13014KT 29/13 A3001 RMK A01 T02900131  RH  038%=      5-min Rain = 0
KHA2 150025Z 13015KT 29/13 A3001 RMK A01 T02900132  RH  038%=      5-min Rain = 0
KHA2 150026Z 13015KT 29/13 A3001 RMK A01 T02900130  RH  037%=      5-min Rain = 0
KHA2 150027Z 13018G23KT 29/13 A3001 RMK A01 T02910128  RH  037%=      5-min Rain = 0
KHA2 150028Z 13017KT 29/12 A3001 RMK A01 T02920124  RH  035%=      5-min Rain = 0
KHA2 150029Z 13018KT 29/12 A3001 RMK A01 T02930124  RH  035%=      5-min Rain = 0
KHA2 150030Z 13020KT 29/12 A3001 RMK A01 T02930121  RH  035%=      5-min Rain = 0
KHA2 150031Z 13020KT 29/12 A3001 RMK A01 T02930120  RH  034%=      5-min Rain = 0
KHA2 150032Z 13018KT 29/12 A3001 RMK A01 T02930119  RH  034%=      5-min Rain = 0
KHA2 150033Z 13016KT 29/12 A3001 RMK A01 T02930121  RH  035%=      5-min Rain = 0
KHA2 150034Z 13017KT 29/12 A3001 RMK A01 T02920121  RH  035%=      5-min Rain = 0
KHA2 150035Z 13017KT 29/12 A3001 RMK A01 T02920120  RH  034%=      5-min Rain = 0
KHA2 150036Z 13017KT 29/12 A3001 RMK A01 T02920118  RH  034%=      5-min Rain = 0
KHA2 150037Z 13017KT 29/12 A3001 RMK A01 T02920118  RH  034%=      5-min Rain = 0
KHA2 150038Z 13013KT 29/12 A3001 RMK A01 T02920121  RH  035%=      5-min Rain = 0
KHA2 150039Z 13014KT 29/12 A3001 RMK A01 T02900122  RH  035%=      5-min Rain = 0
KHA2 150040Z 14016KT 29/12 A3001 RMK A01 T02890118  RH  035%=      5-min Rain = 0
KHA2 150041Z 14016KT 29/12 A3002 RMK A01 T02890118  RH  035%=      5-min Rain = 0
KHA2 150042Z 14015KT 29/12 A3002 RMK A01 T02890119  RH  035%=      5-min Rain = 0
KHA2 150043Z 14014KT 29/12 A3002 RMK A01 T02890122  RH  036%=      5-min Rain = 0
KHA2 150044Z 14016KT 29/12 A3002 RMK A01 T02880122  RH  036%=      5-min Rain = 0
KHA2 150045Z 14015KT 29/12 A3002 RMK A01 T02870121  RH  036%=      5-min Rain = 0
KHA2 150046Z 14016KT 29/12 A3002 RMK A01 T02870120  RH  036%=      5-min Rain = 0
KHA2 150047Z 14017KT 29/12 A3002 RMK A01 T02870120  RH  036%=      5-min Rain = 0
KHA2 150048Z 14017KT 29/12 A3002 RMK A01 T02870118  RH  035%=      5-min Rain = 0
KHA2 150049Z 14017KT 29/12 A3002 RMK A01 T02870118  RH  035%=      5-min Rain = 0
KHA2 150050Z 14017KT 29/12 A3002 RMK A01 T02870116  RH  034%=      5-min Rain = 0
KHA2 150051Z 14015KT 29/12 A3002 RMK A01 T02880117  RH  035%=      5-min Rain = 0
KHA2 150052Z 14016KT 29/12 A3002 RMK A01 T02880117  RH  035%=      5-min Rain = 0
KHA2 150053Z 14015KT 29/12 A3002 RMK A01 T02880117  RH  035%=      5-min Rain = 0
KHA2 150054Z 14014KT 29/12 A3002 RMK A01 T02870119  RH  035%=      5-min Rain = 0
KHA2 150055Z 15015KT 29/12 A3003 RMK A01 T02860120  RH  036%=      5-min Rain = 0
KHA2 150056Z 15017KT 29/12 A3003 RMK A01 T02860118  RH  035%=      5-min Rain = 0
KHA2 150057Z 15014KT 29/12 A3003 RMK A01 T02860118  RH  035%=      5-min Rain = 0
KHA2 150058Z 15014KT 29/12 A3003 RMK A01 T02860120  RH  036%=      5-min Rain = 0
KHA2 150059Z 15014KT 29/12 A3003 RMK A01 T02850121  RH  036%=      5-min Rain = 0
KHA2 150100Z 15011KT 28/12 A3003 RMK A01 T02840124  RH  037%=      5-min Rain = 0
KHA2 150101Z 16012KT 28/13 A3003 RMK A01 T02820125  RH  038%=      5-min Rain = 0
KHA2 150102Z 16013KT 28/13 A3003 RMK A01 T02810125  RH  038%=      5-min Rain = 0
KHA2 150103Z 16012KT 28/12 A3003 RMK A01 T02810124  RH  038%=      5-min Rain = 0
KHA2 150104Z 15013KT 28/12 A3003 RMK A01 T02800124  RH  038%=      5-min Rain = 0
KHA2 150105Z 15012KT 28/13 A3003 RMK A01 T02810125  RH  038%=      5-min Rain = 0
KHA2 150106Z 15013KT 28/13 A3003 RMK A01 T02800125  RH  038%=      5-min Rain = 0
KHA2 150107Z 15014KT 28/12 A3003 RMK A01 T02800123  RH  038%=      5-min Rain = 0
KHA2 150108Z 16015KT 28/12 A3003 RMK A01 T02800123  RH  038%=      5-min Rain = 0
KHA2 150109Z 16015KT 28/12 A3002 RMK A01 T02800124  RH  038%=      5-min Rain = 0
KHA2 150110Z 16016KT 28/12 A3002 RMK A01 T02800124  RH  038%=      5-min Rain = 0
KHA2 150111Z 16016KT 28/12 A3001 RMK A01 T02790123  RH  038%=      5-min Rain = 0
KHA2 150112Z 17016KT 28/13 A3001 RMK A01 T02800125  RH  038%=      5-min Rain = 0
KHA2 150113Z 17016KT 28/13 A3001 RMK A01 T02790125  RH  039%=      5-min Rain = 0
KHA2 150114Z 17015KT 28/13 A3001 RMK A01 T02780125  RH  039%=      5-min Rain = 0
KHA2 150115Z 17016KT 28/13 A3001 RMK A01 T02780126  RH  039%=      5-min Rain = 0
KHA2 150116Z 17015KT 28/13 A3001 RMK A01 T02770125  RH  039%=      5-min Rain = 0
KHA2 150117Z 17015KT 28/13 A3002 RMK A01 T02760125  RH  039%=      5-min Rain = 0
KHA2 150118Z 17014KT 28/13 A3002 RMK A01 T02760127  RH  040%=      5-min Rain = 0
KHA2 150119Z 17013KT 27/13 A3002 RMK A01 T02740127  RH  040%=      5-min Rain = 0
KHA2 150120Z 17013KT 27/13 A3002 RMK A01 T02730128  RH  041%=      5-min Rain = 0
KHA2 150121Z 16012KT 27/13 A3002 RMK A01 T02720128  RH  041%=      5-min Rain = 0
KHA2 150122Z 16012KT 27/13 A3002 RMK A01 T02710127  RH  041%=      5-min Rain = 0
KHA2 150123Z 16013KT 27/13 A3002 RMK A01 T02710126  RH  040%=      5-min Rain = 0
KHA2 150124Z 16011KT 27/13 A3003 RMK A01 T02720126  RH  040%=      5-min Rain = 0
KHA2 150125Z 16011KT 27/13 A3003 RMK A01 T02720126  RH  040%=      5-min Rain = 0
KHA2 150126Z 16011KT 27/13 A3003 RMK A01 T02720126  RH  040%=      5-min Rain = 0
KHA2 150127Z 16010KT 27/13 A3003 RMK A01 T02720126  RH  040%=      5-min Rain = 0
KHA2 150128Z 16011KT 27/13 A3003 RMK A01 T02720126  RH  040%=      5-min Rain = 0
KHA2 150129Z 16010KT 27/13 A3003 RMK A01 T02720125  RH  040%=      5-min Rain = 0
KHA2 150130Z 16010KT 27/13 A3003 RMK A01 T02720127  RH  041%=      5-min Rain = 0
KHA2 150131Z 16009KT 27/13 A3004 RMK A01 T02710129  RH  041%=      5-min Rain = 0
KHA2 150132Z 16009KT 27/13 A3004 RMK A01 T02690130  RH  042%=      5-min Rain = 0
KHA2 150133Z 16009KT 27/13 A3004 RMK A01 T02670130  RH  043%=      5-min Rain = 0
KHA2 150134Z 16009KT 27/13 A3004 RMK A01 T02670130  RH  043%=      5-min Rain = 0
KHA2 150135Z 17010KT 27/13 A3004 RMK A01 T02660130  RH  043%=      5-min Rain = 0
KHA2 150136Z 17010KT 27/13 A3004 RMK A01 T02660129  RH  043%=      5-min Rain = 0
KHA2 150137Z 17009KT 27/13 A3004 RMK A01 T02660128  RH  043%=      5-min Rain = 0
KHA2 150138Z 16009KT 27/13 A3004 RMK A01 T02660128  RH  043%=      5-min Rain = 0
KHA2 150139Z 16009KT 27/13 A3004 RMK A01 T02650127  RH  042%=      5-min Rain = 0
KHA2 150140Z 16010KT 27/13 A3004 RMK A01 T02660125  RH  042%=      5-min Rain = 0
KHA2 150141Z 17009KT 27/12 A3004 RMK A01 T02670124  RH  041%=      5-min Rain = 0
KHA2 150142Z 17010KT 27/13 A3004 RMK A01 T02680126  RH  042%=      5-min Rain = 0
KHA2 150143Z 17009KT 27/13 A3004 RMK A01 T02670126  RH  042%=      5-min Rain = 0
KHA2 150144Z 17009KT 27/13 A3004 RMK A01 T02670127  RH  042%=      5-min Rain = 0
KHA2 150145Z 18010KT 27/13 A3004 RMK A01 T02650129  RH  043%=      5-min Rain = 0
KHA2 150146Z 17009KT 26/13 A3004 RMK A01 T02630129  RH  043%=      5-min Rain = 0
KHA2 150147Z 17009KT 26/13 A3004 RMK A01 T02620128  RH  044%=      5-min Rain = 0
KHA2 150148Z 18009KT 26/13 A3004 RMK A01 T02620129  RH  044%=      5-min Rain = 0
KHA2 150149Z 19011KT 26/13 A3004 RMK A01 T02610130  RH  044%=      5-min Rain = 0
KHA2 150150Z 18011KT 26/13 A3004 RMK A01 T02600132  RH  045%=      5-min Rain = 0
KHA2 150151Z 18011KT 26/13 A3004 RMK A01 T02590132  RH  046%=      5-min Rain = 0
KHA2 150152Z 18012KT 26/13 A3004 RMK A01 T02580131  RH  045%=      5-min Rain = 0
KHA2 150153Z 18012KT 26/13 A3004 RMK A01 T02600129  RH  044%=      5-min Rain = 0
KHA2 150154Z 19011KT 26/13 A3004 RMK A01 T02620131  RH  044%=      5-min Rain = 0
KHA2 150155Z 20010KT 26/13 A3005 RMK A01 T02620132  RH  045%=      5-min Rain = 0
KHA2 150156Z 20010KT 26/13 A3005 RMK A01 T02610133  RH  045%=      5-min Rain = 0
KHA2 150157Z 20011KT 26/13 A3005 RMK A01 T02610132  RH  045%=      5-min Rain = 0
KHA2 150158Z 21011KT 26/13 A3005 RMK A01 T02610133  RH  045%=      5-min Rain = 0
KHA2 150159Z 21010KT 26/13 A3005 RMK A01 T02620133  RH  045%=      5-min Rain = 0
KHA2 150200Z 22012KT 26/14 A3006 RMK A01 T02620136  RH  046%=      5-min Rain = 0
KHA2 150201Z 23011KT 26/14 A3006 RMK A01 T02590138  RH  047%=      5-min Rain = 0
KHA2 150202Z 23011KT 26/14 A3006 RMK A01 T02560139  RH  048%=      5-min Rain = 0
KHA2 150203Z 23010KT 25/14 A3006 RMK A01 T02540138  RH  049%=      5-min Rain = 0
KHA2 150204Z 23010KT 25/14 A3006 RMK A01 T02540136  RH  048%=      5-min Rain = 0
KHA2 150205Z 23010KT 26/14 A3006 RMK A01 T02550135  RH  047%=      5-min Rain = 0
KHA2 150206Z 23010KT 26/13 A3006 RMK A01 T02560133  RH  046%=      5-min Rain = 0
KHA2 150207Z 23010KT 26/13 A3006 RMK A01 T02570132  RH  046%=      5-min Rain = 0
KHA2 150208Z 22011KT 26/13 A3006 RMK A01 T02580128  RH  044%=      5-min Rain = 0
KHA2 150209Z 22011KT 26/13 A3006 RMK A01 T02610128  RH  044%=      5-min Rain = 0
KHA2 150210Z 22011KT 26/13 A3006 RMK A01 T02610127  RH  043%=      5-min Rain = 0
KHA2 150211Z 22011KT 26/13 A3006 RMK A01 T02620128  RH  043%=      5-min Rain = 0
KHA2 150212Z 22012KT 26/13 A3006 RMK A01 T02620127  RH  043%=      5-min Rain = 0
KHA2 150213Z 22012KT 26/13 A3006 RMK A01 T02630125  RH  042%=      5-min Rain = 0
KHA2 150214Z 22013KT 26/13 A3006 RMK A01 T02640125  RH  042%=      5-min Rain = 0
KHA2 150215Z 22014KT 27/12 A3006 RMK A01 T02660122  RH  041%=      5-min Rain = 0
KHA2 150216Z 22013KT 27/12 A3006 RMK A01 T02680123  RH  041%=      5-min Rain = 0
KHA2 150217Z 22013KT 27/12 A3007 RMK A01 T02680123  RH  041%=      5-min Rain = 0
KHA2 150218Z 22012KT 27/12 A3007 RMK A01 T02680124  RH  041%=      5-min Rain = 0
KHA2 150219Z 23013KT 27/13 A3007 RMK A01 T02680125  RH  041%=      5-min Rain = 0
KHA2 150220Z 23013KT 27/13 A3007 RMK A01 T02670125  RH  041%=      5-min Rain = 0
KHA2 150221Z 23015KT 27/12 A3007 RMK A01 T02670124  RH  041%=      5-min Rain = 0
KHA2 150222Z 23014KT 27/12 A3007 RMK A01 T02670124  RH  041%=      5-min Rain = 0
KHA2 150223Z 23015KT 27/12 A3007 RMK A01 T02670124  RH  041%=      5-min Rain = 0
KHA2 150224Z 22015KT 27/12 A3007 RMK A01 T02670124  RH  041%=      5-min Rain = 0
KHA2 150225Z 22016KT 27/12 A3007 RMK A01 T02670124  RH  041%=      5-min Rain = 0
KHA2 150226Z 22015KT 27/12 A3007 RMK A01 T02680124  RH  041%=      5-min Rain = 0
KHA2 150227Z 22014KT 27/13 A3007 RMK A01 T02680125  RH  041%=      5-min Rain = 0
KHA2 150228Z 22013KT 27/13 A3007 RMK A01 T02670126  RH  042%=      5-min Rain = 0
KHA2 150229Z 22015KT 27/13 A3007 RMK A01 T02650126  RH  042%=      5-min Rain = 0
KHA2 150230Z 22015KT 27/13 A3006 RMK A01 T02650126  RH  042%=      5-min Rain = 0
KHA2 150231Z 21015KT 27/13 A3006 RMK A01 T02660127  RH  042%=      5-min Rain = 0
KHA2 150232Z 21014KT 27/13 A3006 RMK A01 T02650129  RH  043%=      5-min Rain = 0
KHA2 150233Z 22014KT 26/13 A3006 RMK A01 T02640130  RH  043%=      5-min Rain = 0
KHA2 150234Z 22014KT 26/13 A3006 RMK A01 T02640131  RH  044%=      5-min Rain = 0
KHA2 150235Z 22013KT 26/13 A3006 RMK A01 T02630132  RH  044%=      5-min Rain = 0
KHA2 150236Z 22012KT 26/13 A3007 RMK A01 T02620132  RH  045%=      5-min Rain = 0
KHA2 150237Z 22013KT 26/13 A3007 RMK A01 T02620132  RH  045%=      5-min Rain = 0
KHA2 150238Z 21012KT 26/13 A3007 RMK A01 T02610132  RH  045%=      5-min Rain = 0
KHA2 150239Z 21012KT 26/13 A3007 RMK A01 T02610132  RH  045%=      5-min Rain = 0
KHA2 150240Z 21011KT 26/13 A3007 RMK A01 T02610132  RH  045%=      5-min Rain = 0
KHA2 150241Z 20010KT 26/13 A3008 RMK A01 T02610132  RH  045%=      5-min Rain = 0
KHA2 150242Z 20009KT 26/13 A3008 RMK A01 T02610134  RH  045%=      5-min Rain = 0
KHA2 150243Z 20009KT 26/13 A3008 RMK A01 T02600133  RH  046%=      5-min Rain = 0
KHA2 150244Z 19009KT 26/13 A3008 RMK A01 T02590133  RH  046%=      5-min Rain = 0
KHA2 150245Z 19009KT 26/13 A3008 RMK A01 T02590133  RH  046%=      5-min Rain = 0
KHA2 150246Z 19009KT 26/13 A3008 RMK A01 T02580134  RH  046%=      5-min Rain = 0
KHA2 150247Z 18009KT 26/13 A3008 RMK A01 T02580134  RH  046%=      5-min Rain = 0
KHA2 150248Z 18009KT 26/13 A3009 RMK A01 T02570134  RH  047%=      5-min Rain = 0
KHA2 150249Z 17010KT 26/13 A3009 RMK A01 T02570134  RH  047%=      5-min Rain = 0
KHA2 150250Z 17009KT 26/14 A3009 RMK A01 T02570135  RH  047%=      5-min Rain = 0
KHA2 150251Z 16009KT 26/14 A3009 RMK A01 T02560135  RH  047%=      5-min Rain = 0
KHA2 150252Z 16010KT 26/14 A3009 RMK A01 T02560135  RH  047%=      5-min Rain = 0
KHA2 150253Z 17010KT 26/13 A3009 RMK A01 T02550134  RH  047%=      5-min Rain = 0
KHA2 150254Z 17011KT 26/14 A3009 RMK A01 T02550135  RH  047%=      5-min Rain = 0
KHA2 150255Z 17011KT 26/13 A3009 RMK A01 T02560133  RH  046%=      5-min Rain = 0
KHA2 150256Z 18011KT 26/13 A3009 RMK A01 T02570132  RH  046%=      5-min Rain = 0
KHA2 150257Z 18011KT 26/13 A3009 RMK A01 T02570133  RH  046%=      5-min Rain = 0
KHA2 150258Z 18011KT 26/13 A3009 RMK A01 T02580134  RH  046%=      5-min Rain = 0
KHA2 150259Z 19011KT 26/13 A3009 RMK A01 T02570134  RH  046%=      5-min Rain = 0
KHA2 150300Z 19011KT 26/14 A3009 RMK A01 T02560135  RH  047%=      5-min Rain = 0
KHA2 150301Z 19011KT 26/13 A3009 RMK A01 T02560134  RH  047%=      5-min Rain = 0
KHA2 150302Z 19011KT 26/13 A3009 RMK A01 T02560134  RH  047%=      5-min Rain = 0
KHA2 150303Z 19012KT 26/14 A3009 RMK A01 T02560136  RH  047%=      5-min Rain = 0
KHA2 150304Z 20011KT 26/14 A3009 RMK A01 T02550138  RH  048%=      5-min Rain = 0
KHA2 150305Z 20012KT 25/14 A3009 RMK A01 T02530139  RH  049%=      5-min Rain = 0
KHA2 150306Z 19012KT 25/14 A3009 RMK A01 T02510139  RH  050%=      5-min Rain = 0
KHA2 150307Z 20012KT 25/14 A3009 RMK A01 T02500140  RH  050%=      5-min Rain = 0
KHA2 150308Z 19011KT 25/14 A3009 RMK A01 T02500140  RH  050%=      5-min Rain = 0
KHA2 150309Z 19011KT 25/14 A3009 RMK A01 T02490140  RH  051%=      5-min Rain = 0
KHA2 150310Z 19012KT 25/14 A3009 RMK A01 T02490140  RH  051%=      5-min Rain = 0
KHA2 150311Z 19012KT 25/14 A3009 RMK A01 T02480140  RH  051%=      5-min Rain = 0
KHA2 150312Z 20012KT 25/14 A3009 RMK A01 T02470139  RH  051%=      5-min Rain = 0
KHA2 150313Z 20013KT 25/14 A3009 RMK A01 T02480140  RH  051%=      5-min Rain = 0
KHA2 150314Z 20013KT 25/14 A3008 RMK A01 T02480139  RH  051%=      5-min Rain = 0
KHA2 150315Z 19013KT 25/14 A3008 RMK A01 T02480138  RH  051%=      5-min Rain = 0
KHA2 150316Z 19013KT 25/14 A3008 RMK A01 T02480138  RH  050%=      5-min Rain = 0
KHA2 150317Z 19012KT 25/14 A3008 RMK A01 T02480138  RH  050%=      5-min Rain = 0
KHA2 150318Z 19012KT 25/14 A3008 RMK A01 T02480138  RH  050%=      5-min Rain = 0
KHA2 150319Z 19012KT 25/14 A3008 RMK A01 T02480138  RH  050%=      5-min Rain = 0
KHA2 150320Z 18011KT 25/14 A3008 RMK A01 T02470138  RH  051%=      5-min Rain = 0
KHA2 150321Z 18011KT 25/14 A3009 RMK A01 T02460139  RH  051%=      5-min Rain = 0
KHA2 150322Z 16011KT 25/14 A3009 RMK A01 T02450140  RH  052%=      5-min Rain = 0
KHA2 150323Z 16011KT 24/14 A3009 RMK A01 T02430141  RH  053%=      5-min Rain = 0
KHA2 150324Z 16011KT 24/14 A3009 RMK A01 T02410141  RH  054%=      5-min Rain = 0
KHA2 150325Z 17011KT 24/14 A3009 RMK A01 T02400141  RH  054%=      5-min Rain = 0
KHA2 150326Z 17011KT 24/14 A3009 RMK A01 T02390140  RH  054%=      5-min Rain = 0
KHA2 150327Z 17011KT 24/14 A3009 RMK A01 T02390140  RH  054%=      5-min Rain = 0
KHA2 150328Z 17010KT 24/14 A3009 RMK A01 T02400140  RH  054%=      5-min Rain = 0
KHA2 150329Z 17011KT 24/14 A3008 RMK A01 T02390139  RH  053%=      5-min Rain = 0
KHA2 150330Z 17010KT 24/14 A3008 RMK A01 T02390139  RH  053%=      5-min Rain = 0
KHA2 150331Z 17010KT 24/14 A3008 RMK A01 T02380139  RH  054%=      5-min Rain = 0
KHA2 150332Z 17011KT 24/14 A3008 RMK A01 T02370139  RH  054%=      5-min Rain = 0
KHA2 150333Z 17011KT 24/14 A3008 RMK A01 T02360139  RH  054%=      5-min Rain = 0
KHA2 150334Z 17011KT 24/14 A3008 RMK A01 T02360138  RH  054%=      5-min Rain = 0
KHA2 150335Z 17012KT 24/14 A3008 RMK A01 T02370137  RH  053%=      5-min Rain = 0
KHA2 150336Z 17013KT 24/14 A3008 RMK A01 T02390137  RH  053%=      5-min Rain = 0
KHA2 150337Z 17013KT 24/14 A3008 RMK A01 T02400136  RH  052%=      5-min Rain = 0
KHA2 150338Z 18014KT 24/14 A3008 RMK A01 T02410135  RH  051%=      5-min Rain = 0
KHA2 150339Z 18014KT 24/14 A3008 RMK A01 T02430135  RH  051%=      5-min Rain = 0
KHA2 150340Z 18014KT 24/14 A3008 RMK A01 T02430135  RH  051%=      5-min Rain = 0
KHA2 150341Z 17015KT 24/13 A3008 RMK A01 T02430133  RH  050%=      5-min Rain = 0
KHA2 150342Z 17015KT 25/13 A3008 RMK A01 T02450133  RH  050%=      5-min Rain = 0
KHA2 150343Z 17016KT 25/13 A3008 RMK A01 T02450132  RH  049%=      5-min Rain = 0
KHA2 150344Z 17014KT 25/13 A3008 RMK A01 T02460132  RH  049%=      5-min Rain = 0
KHA2 150345Z 17014KT 25/13 A3008 RMK A01 T02470132  RH  049%=      5-min Rain = 0
KHA2 150346Z 17014KT 25/13 A3008 RMK A01 T02460132  RH  049%=      5-min Rain = 0
KHA2 150347Z 17013KT 25/13 A3008 RMK A01 T02450132  RH  049%=      5-min Rain = 0
KHA2 150348Z 17012KT 24/13 A3008 RMK A01 T02440133  RH  050%=      5-min Rain = 0
KHA2 150349Z 17013KT 24/13 A3008 RMK A01 T02430132  RH  050%=      5-min Rain = 0
KHA2 150350Z 17012KT 24/13 A3008 RMK A01 T02430132  RH  050%=      5-min Rain = 0
KHA2 150351Z 17012KT 24/13 A3008 RMK A01 T02420133  RH  050%=      5-min Rain = 0
KHA2 150352Z 18011KT 24/13 A3008 RMK A01 T02420133  RH  050%=      5-min Rain = 0
KHA2 150353Z 18012KT 24/13 A3008 RMK A01 T02420133  RH  051%=      5-min Rain = 0
KHA2 150354Z 18012KT 24/13 A3008 RMK A01 T02420133  RH  051%=      5-min Rain = 0
KHA2 150355Z 18013KT 24/13 A3008 RMK A01 T02430133  RH  050%=      5-min Rain = 0
KHA2 150356Z 18012KT 24/13 A3008 RMK A01 T02440133  RH  050%=      5-min Rain = 0
KHA2 150357Z 18012KT 25/13 A3008 RMK A01 T02450133  RH  050%=      5-min Rain = 0
KHA2 150358Z 18012KT 25/13 A3007 RMK A01 T02450133  RH  050%=      5-min Rain = 0
KHA2 150359Z 18011KT 25/13 A3007 RMK A01 T02450133  RH  050%=      5-min Rain = 0
KHA2 150400Z 18011KT 25/13 A3007 RMK A01 T02450132  RH  049%=      5-min Rain = 0
KHA2 150401Z 18012KT 25/13 A3007 RMK A01 T02460132  RH  049%=      5-min Rain = 0
KHA2 150402Z 18012KT 25/13 A3007 RMK A01 T02460131  RH  049%=      5-min Rain = 0
KHA2 150403Z 19011KT 25/13 A3007 RMK A01 T02460131  RH  049%=      5-min Rain = 0
KHA2 150404Z 19012KT 25/13 A3007 RMK A01 T02460130  RH  048%=      5-min Rain = 0
KHA2 150405Z 19012KT 25/13 A3007 RMK A01 T02470129  RH  048%=      5-min Rain = 0
KHA2 150406Z 19013KT 25/13 A3007 RMK A01 T02490128  RH  047%=      5-min Rain = 0
KHA2 150407Z 19013KT 25/13 A3007 RMK A01 T02530126  RH  045%=      5-min Rain = 0
KHA2 150408Z 19013KT 26/13 A3007 RMK A01 T02570125  RH  044%=      5-min Rain = 0
KHA2 150409Z 19012KT 26/13 A3007 RMK A01 T02590126  RH  044%=      5-min Rain = 0
KHA2 150410Z 19012KT 26/13 A3007 RMK A01 T02580127  RH  044%=      5-min Rain = 0
KHA2 150411Z 19012KT 26/13 A3007 RMK A01 T02570127  RH  044%=      5-min Rain = 0
KHA2 150412Z 19012KT 26/13 A3007 RMK A01 T02570127  RH  045%=      5-min Rain = 0
KHA2 150413Z 19013KT 26/13 A3007 RMK A01 T02560127  RH  045%=      5-min Rain = 0
KHA2 150414Z 19013KT 26/13 A3006 RMK A01 T02570127  RH  044%=      5-min Rain = 0
KHA2 150415Z 19012KT 26/13 A3006 RMK A01 T02560126  RH  044%=      5-min Rain = 0
KHA2 150416Z 19011KT 26/13 A3006 RMK A01 T02560127  RH  044%=      5-min Rain = 0
KHA2 150417Z 19012KT 26/13 A3006 RMK A01 T02560127  RH  045%=      5-min Rain = 0
KHA2 150418Z 19012KT 26/13 A3006 RMK A01 T02550127  RH  045%=      5-min Rain = 0
KHA2 150419Z 20013KT 25/13 A3006 RMK A01 T02540128  RH  045%=      5-min Rain = 0
KHA2 150420Z 20012KT 25/13 A3006 RMK A01 T02540128  RH  045%=      5-min Rain = 0
KHA2 150421Z 20012KT 25/13 A3006 RMK A01 T02540129  RH  046%=      5-min Rain = 0
KHA2 150422Z 20013KT 25/13 A3006 RMK A01 T02530129  RH  046%=      5-min Rain = 0
KHA2 150423Z 20013KT 25/13 A3006 RMK A01 T02530129  RH  046%=      5-min Rain = 0
KHA2 150424Z 20013KT 25/13 A3006 RMK A01 T02520130  RH  046%=      5-min Rain = 0
KHA2 150425Z 20013KT 25/13 A3006 RMK A01 T02520130  RH  047%=      5-min Rain = 0
KHA2 150426Z 20011KT 25/13 A3006 RMK A01 T02510130  RH  047%=      5-min Rain = 0
KHA2 150427Z 21012KT 25/13 A3006 RMK A01 T02500130  RH  047%=      5-min Rain = 0
KHA2 150428Z 21011KT 25/13 A3006 RMK A01 T02480132  RH  048%=      5-min Rain = 0
KHA2 150429Z 20011KT 25/13 A3006 RMK A01 T02460133  RH  049%=      5-min Rain = 0
KHA2 150430Z 20012KT 24/13 A3006 RMK A01 T02440133  RH  050%=      5-min Rain = 0
KHA2 150431Z 20012KT 24/13 A3006 RMK A01 T02430132  RH  050%=      5-min Rain = 0
KHA2 150432Z 20012KT 24/13 A3006 RMK A01 T02440131  RH  049%=      5-min Rain = 0
KHA2 150433Z 20011KT 24/13 A3006 RMK A01 T02440131  RH  049%=      5-min Rain = 0
KHA2 150434Z 20011KT 24/13 A3006 RMK A01 T02440132  RH  050%=      5-min Rain = 0
KHA2 150435Z 21011KT 24/13 A3006 RMK A01 T02430132  RH  050%=      5-min Rain = 0
KHA2 150436Z 21012KT 24/13 A3006 RMK A01 T02430132  RH  050%=      5-min Rain = 0
KHA2 150437Z 21011KT 24/13 A3006 RMK A01 T02430132  RH  050%=      5-min Rain = 0
KHA2 150438Z 21010KT 24/13 A3006 RMK A01 T02420132  RH  050%=      5-min Rain = 0
KHA2 150439Z 21010KT 24/13 A3006 RMK A01 T02410133  RH  051%=      5-min Rain = 0
KHA2 150440Z 21010KT 24/13 A3006 RMK A01 T02400133  RH  051%=      5-min Rain = 0
KHA2 150441Z 21010KT 24/13 A3006 RMK A01 T02390133  RH  051%=      5-min Rain = 0
KHA2 150442Z 21010KT 24/13 A3006 RMK A01 T02390133  RH  051%=      5-min Rain = 0
KHA2 150443Z 21009KT 24/13 A3006 RMK A01 T02390133  RH  051%=      5-min Rain = 0
KHA2 150444Z 21009KT 24/13 A3006 RMK A01 T02390133  RH  052%=      5-min Rain = 0
KHA2 150445Z 21009KT 24/13 A3006 RMK A01 T02390133  RH  051%=      5-min Rain = 0
KHA2 150446Z 21008KT 24/13 A3006 RMK A01 T02390132  RH  051%=      5-min Rain = 0
KHA2 150447Z 21008KT 24/13 A3006 RMK A01 T02400133  RH  051%=      5-min Rain = 0
KHA2 150448Z 21007KT 24/13 A3006 RMK A01 T02400133  RH  051%=      5-min Rain = 0
KHA2 150449Z 21007KT 24/13 A3006 RMK A01 T02400133  RH  051%=      5-min Rain = 0
KHA2 150450Z 21006KT 24/13 A3006 RMK A01 T02400133  RH  051%=      5-min Rain = 0
KHA2 150451Z 20006KT 24/13 A3006 RMK A01 T02400133  RH  051%=      5-min Rain = 0
KHA2 150452Z 20006KT 24/13 A3007 RMK A01 T02400133  RH  051%=      5-min Rain = 0
KHA2 150453Z 19005KT 24/13 A3007 RMK A01 T02400134  RH  052%=      5-min Rain = 0
KHA2 150454Z 18005KT 24/14 A3007 RMK A01 T02390135  RH  052%=      5-min Rain = 0
KHA2 150455Z 17004KT 24/14 A3007 RMK A01 T02380136  RH  053%=      5-min Rain = 0
KHA2 150456Z 15004KT 24/14 A3007 RMK A01 T02370136  RH  053%=      5-min Rain = 0
KHA2 150457Z 13004KT 24/14 A3007 RMK A01 T02360137  RH  054%=      5-min Rain = 0
KHA2 150458Z 12005KT 24/14 A3007 RMK A01 T02350136  RH  054%=      5-min Rain = 0
KHA2 150459Z 11006KT 23/14 A3007 RMK A01 T02340135  RH  054%=      5-min Rain = 0

Page generated in 0.0776 seconds.